<?xml version="1.0"?>
<gpx xmlns="http://www.topografix.com/GPX/1/1" version="1.1" creator="afstandmeten.nl" xmlns:xsi="http://www.w3.org/2001/XMLSchema-instance" xsi:schemaLocation="http://www.topografix.com/GPX/1/1 http://www.topografix.com/GPX/1/1/gpx.xsd">
  <trk>
    <name>Colombey-Chaumont</name>
    <desc></desc>
    <trkseg>
      <trkpt lat="48.222691" lon="4.886207">
        <time>2015-05-13T00:00:00Z</time>
      </trkpt>
      <trkpt lat="48.22243" lon="4.8861">
        <time>2015-05-13T00:00:03Z</time>
      </trkpt>
      <trkpt lat="48.22254" lon="4.88668">
        <time>2015-05-13T00:00:07Z</time>
      </trkpt>
      <trkpt lat="48.22279" lon="4.8879">
        <time>2015-05-13T00:00:16Z</time>
      </trkpt>
      <trkpt lat="48.22286" lon="4.88827">
        <time>2015-05-13T00:00:18Z</time>
      </trkpt>
      <trkpt lat="48.22288" lon="4.88856">
        <time>2015-05-13T00:00:20Z</time>
      </trkpt>
      <trkpt lat="48.22287" lon="4.88886">
        <time>2015-05-13T00:00:22Z</time>
      </trkpt>
      <trkpt lat="48.22284" lon="4.88926">
        <time>2015-05-13T00:00:25Z</time>
      </trkpt>
      <trkpt lat="48.22278" lon="4.88965">
        <time>2015-05-13T00:00:28Z</time>
      </trkpt>
      <trkpt lat="48.22263" lon="4.89058">
        <time>2015-05-13T00:00:34Z</time>
      </trkpt>
      <trkpt lat="48.22262" lon="4.89097">
        <time>2015-05-13T00:00:36Z</time>
      </trkpt>
      <trkpt lat="48.22271" lon="4.89172">
        <time>2015-05-13T00:00:42Z</time>
      </trkpt>
      <trkpt lat="48.2227" lon="4.89232">
        <time>2015-05-13T00:00:46Z</time>
      </trkpt>
      <trkpt lat="48.22271" lon="4.89298">
        <time>2015-05-13T00:00:50Z</time>
      </trkpt>
      <trkpt lat="48.22276" lon="4.89336">
        <time>2015-05-13T00:00:52Z</time>
      </trkpt>
      <trkpt lat="48.22282" lon="4.89357">
        <time>2015-05-13T00:00:54Z</time>
      </trkpt>
      <trkpt lat="48.22338" lon="4.89459">
        <time>2015-05-13T00:01:03Z</time>
      </trkpt>
      <trkpt lat="48.22356" lon="4.89498">
        <time>2015-05-13T00:01:06Z</time>
      </trkpt>
      <trkpt lat="48.22362" lon="4.89519">
        <time>2015-05-13T00:01:07Z</time>
      </trkpt>
      <trkpt lat="48.22369" lon="4.89548">
        <time>2015-05-13T00:01:09Z</time>
      </trkpt>
      <trkpt lat="48.22376" lon="4.8961">
        <time>2015-05-13T00:01:14Z</time>
      </trkpt>
      <trkpt lat="48.22392" lon="4.89824">
        <time>2015-05-13T00:01:28Z</time>
      </trkpt>
      <trkpt lat="48.22404" lon="4.90006">
        <time>2015-05-13T00:01:40Z</time>
      </trkpt>
      <trkpt lat="48.22413" lon="4.90118">
        <time>2015-05-13T00:01:48Z</time>
      </trkpt>
      <trkpt lat="48.22442" lon="4.90272">
        <time>2015-05-13T00:01:58Z</time>
      </trkpt>
      <trkpt lat="48.22476" lon="4.90438">
        <time>2015-05-13T00:02:10Z</time>
      </trkpt>
      <trkpt lat="48.22505" lon="4.9059">
        <time>2015-05-13T00:02:20Z</time>
      </trkpt>
      <trkpt lat="48.22518" lon="4.90702">
        <time>2015-05-13T00:02:28Z</time>
      </trkpt>
      <trkpt lat="48.22536" lon="4.90797">
        <time>2015-05-13T00:02:34Z</time>
      </trkpt>
      <trkpt lat="48.22561" lon="4.90898">
        <time>2015-05-13T00:02:42Z</time>
      </trkpt>
      <trkpt lat="48.22579" lon="4.90956">
        <time>2015-05-13T00:02:46Z</time>
      </trkpt>
      <trkpt lat="48.2263" lon="4.9109">
        <time>2015-05-13T00:02:56Z</time>
      </trkpt>
      <trkpt lat="48.22658" lon="4.91176">
        <time>2015-05-13T00:03:02Z</time>
      </trkpt>
      <trkpt lat="48.22675" lon="4.91253">
        <time>2015-05-13T00:03:08Z</time>
      </trkpt>
      <trkpt lat="48.22682" lon="4.91327">
        <time>2015-05-13T00:03:13Z</time>
      </trkpt>
      <trkpt lat="48.22684" lon="4.9139">
        <time>2015-05-13T00:03:17Z</time>
      </trkpt>
      <trkpt lat="48.22683" lon="4.91509">
        <time>2015-05-13T00:03:25Z</time>
      </trkpt>
      <trkpt lat="48.22681" lon="4.91572">
        <time>2015-05-13T00:03:29Z</time>
      </trkpt>
      <trkpt lat="48.22683" lon="4.91609">
        <time>2015-05-13T00:03:32Z</time>
      </trkpt>
      <trkpt lat="48.227" lon="4.91669">
        <time>2015-05-13T00:03:36Z</time>
      </trkpt>
      <trkpt lat="48.22708" lon="4.91696">
        <time>2015-05-13T00:03:38Z</time>
      </trkpt>
      <trkpt lat="48.22719" lon="4.91722">
        <time>2015-05-13T00:03:40Z</time>
      </trkpt>
      <trkpt lat="48.2276" lon="4.91794">
        <time>2015-05-13T00:03:46Z</time>
      </trkpt>
      <trkpt lat="48.22791" lon="4.91855">
        <time>2015-05-13T00:03:51Z</time>
      </trkpt>
      <trkpt lat="48.22804" lon="4.91891">
        <time>2015-05-13T00:03:54Z</time>
      </trkpt>
      <trkpt lat="48.22811" lon="4.91923">
        <time>2015-05-13T00:03:56Z</time>
      </trkpt>
      <trkpt lat="48.22814" lon="4.91962">
        <time>2015-05-13T00:03:59Z</time>
      </trkpt>
      <trkpt lat="48.22818" lon="4.92005">
        <time>2015-05-13T00:04:02Z</time>
      </trkpt>
      <trkpt lat="48.22828" lon="4.92045">
        <time>2015-05-13T00:04:05Z</time>
      </trkpt>
      <trkpt lat="48.22886" lon="4.92223">
        <time>2015-05-13T00:04:18Z</time>
      </trkpt>
      <trkpt lat="48.22909" lon="4.92271">
        <time>2015-05-13T00:04:22Z</time>
      </trkpt>
      <trkpt lat="48.22937" lon="4.9231">
        <time>2015-05-13T00:04:25Z</time>
      </trkpt>
      <trkpt lat="48.22946" lon="4.92328">
        <time>2015-05-13T00:04:27Z</time>
      </trkpt>
      <trkpt lat="48.23022" lon="4.92521">
        <time>2015-05-13T00:04:42Z</time>
      </trkpt>
      <trkpt lat="48.23112" lon="4.92756">
        <time>2015-05-13T00:05:00Z</time>
      </trkpt>
      <trkpt lat="48.23121" lon="4.9278">
        <time>2015-05-13T00:05:02Z</time>
      </trkpt>
      <trkpt lat="48.23136" lon="4.92806">
        <time>2015-05-13T00:05:04Z</time>
      </trkpt>
      <trkpt lat="48.23172" lon="4.92869">
        <time>2015-05-13T00:05:09Z</time>
      </trkpt>
      <trkpt lat="48.23203" lon="4.92933">
        <time>2015-05-13T00:05:15Z</time>
      </trkpt>
      <trkpt lat="48.23215" lon="4.92951">
        <time>2015-05-13T00:05:16Z</time>
      </trkpt>
      <trkpt lat="48.23236" lon="4.92975">
        <time>2015-05-13T00:05:19Z</time>
      </trkpt>
      <trkpt lat="48.23267" lon="4.93012">
        <time>2015-05-13T00:05:23Z</time>
      </trkpt>
      <trkpt lat="48.2329" lon="4.93055">
        <time>2015-05-13T00:05:27Z</time>
      </trkpt>
      <trkpt lat="48.2331" lon="4.9311">
        <time>2015-05-13T00:05:31Z</time>
      </trkpt>
      <trkpt lat="48.23328" lon="4.93161">
        <time>2015-05-13T00:05:35Z</time>
      </trkpt>
      <trkpt lat="48.23363" lon="4.93226">
        <time>2015-05-13T00:05:40Z</time>
      </trkpt>
      <trkpt lat="48.23448" lon="4.93364">
        <time>2015-05-13T00:05:53Z</time>
      </trkpt>
      <trkpt lat="48.23476" lon="4.93414">
        <time>2015-05-13T00:05:57Z</time>
      </trkpt>
      <trkpt lat="48.23501" lon="4.93466">
        <time>2015-05-13T00:06:01Z</time>
      </trkpt>
      <trkpt lat="48.23552" lon="4.93581">
        <time>2015-05-13T00:06:10Z</time>
      </trkpt>
      <trkpt lat="48.2358" lon="4.93646">
        <time>2015-05-13T00:06:16Z</time>
      </trkpt>
      <trkpt lat="48.23602" lon="4.93704">
        <time>2015-05-13T00:06:20Z</time>
      </trkpt>
      <trkpt lat="48.23633" lon="4.938">
        <time>2015-05-13T00:06:27Z</time>
      </trkpt>
      <trkpt lat="48.23656" lon="4.93842">
        <time>2015-05-13T00:06:31Z</time>
      </trkpt>
      <trkpt lat="48.23672" lon="4.93877">
        <time>2015-05-13T00:06:34Z</time>
      </trkpt>
      <trkpt lat="48.23702" lon="4.93939">
        <time>2015-05-13T00:06:39Z</time>
      </trkpt>
      <trkpt lat="48.23728" lon="4.93999">
        <time>2015-05-13T00:06:43Z</time>
      </trkpt>
      <trkpt lat="48.23755" lon="4.94076">
        <time>2015-05-13T00:06:49Z</time>
      </trkpt>
      <trkpt lat="48.23784" lon="4.94171">
        <time>2015-05-13T00:06:56Z</time>
      </trkpt>
      <trkpt lat="48.23837" lon="4.94344">
        <time>2015-05-13T00:07:09Z</time>
      </trkpt>
      <trkpt lat="48.23876" lon="4.94435">
        <time>2015-05-13T00:07:16Z</time>
      </trkpt>
      <trkpt lat="48.23919" lon="4.94515">
        <time>2015-05-13T00:07:23Z</time>
      </trkpt>
      <trkpt lat="48.23936" lon="4.94555">
        <time>2015-05-13T00:07:26Z</time>
      </trkpt>
      <trkpt lat="48.23949" lon="4.94579">
        <time>2015-05-13T00:07:28Z</time>
      </trkpt>
      <trkpt lat="48.23966" lon="4.94604">
        <time>2015-05-13T00:07:30Z</time>
      </trkpt>
      <trkpt lat="48.23971" lon="4.94619">
        <time>2015-05-13T00:07:32Z</time>
      </trkpt>
      <trkpt lat="48.23971" lon="4.9462">
        <time>2015-05-13T00:07:32Z</time>
      </trkpt>
      <trkpt lat="48.23971" lon="4.9462">
        <time>2015-05-13T00:07:32Z</time>
      </trkpt>
      <trkpt lat="48.23977" lon="4.94649">
        <time>2015-05-13T00:07:34Z</time>
      </trkpt>
      <trkpt lat="48.23981" lon="4.9468">
        <time>2015-05-13T00:07:36Z</time>
      </trkpt>
      <trkpt lat="48.23982" lon="4.94759">
        <time>2015-05-13T00:07:41Z</time>
      </trkpt>
      <trkpt lat="48.23989" lon="4.94833">
        <time>2015-05-13T00:07:46Z</time>
      </trkpt>
      <trkpt lat="48.24001" lon="4.94877">
        <time>2015-05-13T00:07:49Z</time>
      </trkpt>
      <trkpt lat="48.24007" lon="4.94939">
        <time>2015-05-13T00:07:53Z</time>
      </trkpt>
      <trkpt lat="48.24005" lon="4.94951">
        <time>2015-05-13T00:07:54Z</time>
      </trkpt>
      <trkpt lat="48.23997" lon="4.94957">
        <time>2015-05-13T00:07:55Z</time>
      </trkpt>
      <trkpt lat="48.23977" lon="4.94959">
        <time>2015-05-13T00:07:57Z</time>
      </trkpt>
      <trkpt lat="48.23963" lon="4.94956">
        <time>2015-05-13T00:07:58Z</time>
      </trkpt>
      <trkpt lat="48.23955" lon="4.94952">
        <time>2015-05-13T00:07:59Z</time>
      </trkpt>
      <trkpt lat="48.23908" lon="4.94919">
        <time>2015-05-13T00:08:04Z</time>
      </trkpt>
      <trkpt lat="48.23888" lon="4.9491">
        <time>2015-05-13T00:08:06Z</time>
      </trkpt>
      <trkpt lat="48.23843" lon="4.949">
        <time>2015-05-13T00:08:11Z</time>
      </trkpt>
      <trkpt lat="48.23736" lon="4.94892">
        <time>2015-05-13T00:08:22Z</time>
      </trkpt>
      <trkpt lat="48.23704" lon="4.94894">
        <time>2015-05-13T00:08:25Z</time>
      </trkpt>
      <trkpt lat="48.2368" lon="4.94902">
        <time>2015-05-13T00:08:27Z</time>
      </trkpt>
      <trkpt lat="48.23638" lon="4.9491">
        <time>2015-05-13T00:08:32Z</time>
      </trkpt>
      <trkpt lat="48.23613" lon="4.9492">
        <time>2015-05-13T00:08:34Z</time>
      </trkpt>
      <trkpt lat="48.23602" lon="4.94928">
        <time>2015-05-13T00:08:35Z</time>
      </trkpt>
      <trkpt lat="48.23582" lon="4.94948">
        <time>2015-05-13T00:08:38Z</time>
      </trkpt>
      <trkpt lat="48.2352" lon="4.95011">
        <time>2015-05-13T00:08:45Z</time>
      </trkpt>
      <trkpt lat="48.23486" lon="4.95042">
        <time>2015-05-13T00:08:49Z</time>
      </trkpt>
      <trkpt lat="48.23469" lon="4.95054">
        <time>2015-05-13T00:08:51Z</time>
      </trkpt>
      <trkpt lat="48.23449" lon="4.95064">
        <time>2015-05-13T00:08:53Z</time>
      </trkpt>
      <trkpt lat="48.23412" lon="4.95072">
        <time>2015-05-13T00:08:57Z</time>
      </trkpt>
      <trkpt lat="48.23383" lon="4.95071">
        <time>2015-05-13T00:09:00Z</time>
      </trkpt>
      <trkpt lat="48.23362" lon="4.95065">
        <time>2015-05-13T00:09:02Z</time>
      </trkpt>
      <trkpt lat="48.23328" lon="4.95051">
        <time>2015-05-13T00:09:05Z</time>
      </trkpt>
      <trkpt lat="48.23298" lon="4.95038">
        <time>2015-05-13T00:09:09Z</time>
      </trkpt>
      <trkpt lat="48.23269" lon="4.95028">
        <time>2015-05-13T00:09:11Z</time>
      </trkpt>
      <trkpt lat="48.2324" lon="4.95025">
        <time>2015-05-13T00:09:14Z</time>
      </trkpt>
      <trkpt lat="48.23224" lon="4.95027">
        <time>2015-05-13T00:09:16Z</time>
      </trkpt>
      <trkpt lat="48.23175" lon="4.95041">
        <time>2015-05-13T00:09:21Z</time>
      </trkpt>
      <trkpt lat="48.2315" lon="4.95048">
        <time>2015-05-13T00:09:23Z</time>
      </trkpt>
      <trkpt lat="48.23122" lon="4.95067">
        <time>2015-05-13T00:09:27Z</time>
      </trkpt>
      <trkpt lat="48.23106" lon="4.95086">
        <time>2015-05-13T00:09:29Z</time>
      </trkpt>
      <trkpt lat="48.23091" lon="4.95109">
        <time>2015-05-13T00:09:31Z</time>
      </trkpt>
      <trkpt lat="48.23075" lon="4.95145">
        <time>2015-05-13T00:09:34Z</time>
      </trkpt>
      <trkpt lat="48.23066" lon="4.95184">
        <time>2015-05-13T00:09:36Z</time>
      </trkpt>
      <trkpt lat="48.23061" lon="4.95214">
        <time>2015-05-13T00:09:38Z</time>
      </trkpt>
      <trkpt lat="48.23055" lon="4.9523">
        <time>2015-05-13T00:09:40Z</time>
      </trkpt>
      <trkpt lat="48.23047" lon="4.95246">
        <time>2015-05-13T00:09:41Z</time>
      </trkpt>
      <trkpt lat="48.23035" lon="4.95259">
        <time>2015-05-13T00:09:42Z</time>
      </trkpt>
      <trkpt lat="48.22972" lon="4.95309">
        <time>2015-05-13T00:09:50Z</time>
      </trkpt>
      <trkpt lat="48.22935" lon="4.95339">
        <time>2015-05-13T00:09:54Z</time>
      </trkpt>
      <trkpt lat="48.22915" lon="4.95352">
        <time>2015-05-13T00:09:56Z</time>
      </trkpt>
      <trkpt lat="48.22881" lon="4.95365">
        <time>2015-05-13T00:09:59Z</time>
      </trkpt>
      <trkpt lat="48.22842" lon="4.95376">
        <time>2015-05-13T00:10:03Z</time>
      </trkpt>
      <trkpt lat="48.22825" lon="4.95383">
        <time>2015-05-13T00:10:05Z</time>
      </trkpt>
      <trkpt lat="48.22798" lon="4.95402">
        <time>2015-05-13T00:10:08Z</time>
      </trkpt>
      <trkpt lat="48.22774" lon="4.95422">
        <time>2015-05-13T00:10:11Z</time>
      </trkpt>
      <trkpt lat="48.22763" lon="4.95434">
        <time>2015-05-13T00:10:12Z</time>
      </trkpt>
      <trkpt lat="48.22712" lon="4.9552">
        <time>2015-05-13T00:10:20Z</time>
      </trkpt>
      <trkpt lat="48.22627" lon="4.95668">
        <time>2015-05-13T00:10:33Z</time>
      </trkpt>
      <trkpt lat="48.22572" lon="4.95757">
        <time>2015-05-13T00:10:41Z</time>
      </trkpt>
      <trkpt lat="48.22547" lon="4.95785">
        <time>2015-05-13T00:10:44Z</time>
      </trkpt>
      <trkpt lat="48.22535" lon="4.95794">
        <time>2015-05-13T00:10:45Z</time>
      </trkpt>
      <trkpt lat="48.22523" lon="4.95796">
        <time>2015-05-13T00:10:47Z</time>
      </trkpt>
      <trkpt lat="48.22514" lon="4.95794">
        <time>2015-05-13T00:10:47Z</time>
      </trkpt>
      <trkpt lat="48.22432" lon="4.95752">
        <time>2015-05-13T00:10:56Z</time>
      </trkpt>
      <trkpt lat="48.22415" lon="4.9575">
        <time>2015-05-13T00:10:58Z</time>
      </trkpt>
      <trkpt lat="48.22396" lon="4.95751">
        <time>2015-05-13T00:11:00Z</time>
      </trkpt>
      <trkpt lat="48.22369" lon="4.95757">
        <time>2015-05-13T00:11:02Z</time>
      </trkpt>
      <trkpt lat="48.22336" lon="4.95761">
        <time>2015-05-13T00:11:06Z</time>
      </trkpt>
      <trkpt lat="48.22285" lon="4.95755">
        <time>2015-05-13T00:11:11Z</time>
      </trkpt>
      <trkpt lat="48.2227" lon="4.95757">
        <time>2015-05-13T00:11:12Z</time>
      </trkpt>
      <trkpt lat="48.22255" lon="4.95765">
        <time>2015-05-13T00:11:14Z</time>
      </trkpt>
      <trkpt lat="48.22243" lon="4.95776">
        <time>2015-05-13T00:11:15Z</time>
      </trkpt>
      <trkpt lat="48.222" lon="4.95835">
        <time>2015-05-13T00:11:21Z</time>
      </trkpt>
      <trkpt lat="48.22133" lon="4.95922">
        <time>2015-05-13T00:11:30Z</time>
      </trkpt>
      <trkpt lat="48.22113" lon="4.95943">
        <time>2015-05-13T00:11:32Z</time>
      </trkpt>
      <trkpt lat="48.221" lon="4.95951">
        <time>2015-05-13T00:11:34Z</time>
      </trkpt>
      <trkpt lat="48.22076" lon="4.95964">
        <time>2015-05-13T00:11:36Z</time>
      </trkpt>
      <trkpt lat="48.22049" lon="4.95971">
        <time>2015-05-13T00:11:39Z</time>
      </trkpt>
      <trkpt lat="48.2199" lon="4.95978">
        <time>2015-05-13T00:11:45Z</time>
      </trkpt>
      <trkpt lat="48.21961" lon="4.95982">
        <time>2015-05-13T00:11:48Z</time>
      </trkpt>
      <trkpt lat="48.21936" lon="4.95978">
        <time>2015-05-13T00:11:50Z</time>
      </trkpt>
      <trkpt lat="48.21876" lon="4.95956">
        <time>2015-05-13T00:11:57Z</time>
      </trkpt>
      <trkpt lat="48.21811" lon="4.95937">
        <time>2015-05-13T00:12:03Z</time>
      </trkpt>
      <trkpt lat="48.21732" lon="4.95921">
        <time>2015-05-13T00:12:11Z</time>
      </trkpt>
      <trkpt lat="48.21661" lon="4.95911">
        <time>2015-05-13T00:12:18Z</time>
      </trkpt>
      <trkpt lat="48.21634" lon="4.95909">
        <time>2015-05-13T00:12:21Z</time>
      </trkpt>
      <trkpt lat="48.21608" lon="4.9591">
        <time>2015-05-13T00:12:23Z</time>
      </trkpt>
      <trkpt lat="48.21535" lon="4.95921">
        <time>2015-05-13T00:12:31Z</time>
      </trkpt>
      <trkpt lat="48.21477" lon="4.9594">
        <time>2015-05-13T00:12:37Z</time>
      </trkpt>
      <trkpt lat="48.21448" lon="4.95957">
        <time>2015-05-13T00:12:40Z</time>
      </trkpt>
      <trkpt lat="48.21433" lon="4.95969">
        <time>2015-05-13T00:12:42Z</time>
      </trkpt>
      <trkpt lat="48.2142" lon="4.95984">
        <time>2015-05-13T00:12:43Z</time>
      </trkpt>
      <trkpt lat="48.21412" lon="4.95998">
        <time>2015-05-13T00:12:44Z</time>
      </trkpt>
      <trkpt lat="48.21398" lon="4.96032">
        <time>2015-05-13T00:12:47Z</time>
      </trkpt>
      <trkpt lat="48.21385" lon="4.96077">
        <time>2015-05-13T00:12:50Z</time>
      </trkpt>
      <trkpt lat="48.21371" lon="4.96155">
        <time>2015-05-13T00:12:56Z</time>
      </trkpt>
      <trkpt lat="48.21367" lon="4.96206">
        <time>2015-05-13T00:12:59Z</time>
      </trkpt>
      <trkpt lat="48.21362" lon="4.96307">
        <time>2015-05-13T00:13:06Z</time>
      </trkpt>
      <trkpt lat="48.21358" lon="4.9635">
        <time>2015-05-13T00:13:09Z</time>
      </trkpt>
      <trkpt lat="48.21349" lon="4.96378">
        <time>2015-05-13T00:13:11Z</time>
      </trkpt>
      <trkpt lat="48.21322" lon="4.96423">
        <time>2015-05-13T00:13:15Z</time>
      </trkpt>
      <trkpt lat="48.21306" lon="4.9644">
        <time>2015-05-13T00:13:17Z</time>
      </trkpt>
      <trkpt lat="48.21293" lon="4.96447">
        <time>2015-05-13T00:13:18Z</time>
      </trkpt>
      <trkpt lat="48.21275" lon="4.96445">
        <time>2015-05-13T00:13:20Z</time>
      </trkpt>
      <trkpt lat="48.21262" lon="4.96441">
        <time>2015-05-13T00:13:21Z</time>
      </trkpt>
      <trkpt lat="48.2125" lon="4.96433">
        <time>2015-05-13T00:13:23Z</time>
      </trkpt>
      <trkpt lat="48.21236" lon="4.96419">
        <time>2015-05-13T00:13:24Z</time>
      </trkpt>
      <trkpt lat="48.21227" lon="4.96414">
        <time>2015-05-13T00:13:25Z</time>
      </trkpt>
      <trkpt lat="48.21219" lon="4.96406">
        <time>2015-05-13T00:13:26Z</time>
      </trkpt>
      <trkpt lat="48.21203" lon="4.9638">
        <time>2015-05-13T00:13:28Z</time>
      </trkpt>
      <trkpt lat="48.21173" lon="4.96326">
        <time>2015-05-13T00:13:33Z</time>
      </trkpt>
      <trkpt lat="48.21144" lon="4.96282">
        <time>2015-05-13T00:13:37Z</time>
      </trkpt>
      <trkpt lat="48.21103" lon="4.96236">
        <time>2015-05-13T00:13:42Z</time>
      </trkpt>
      <trkpt lat="48.21072" lon="4.96208">
        <time>2015-05-13T00:13:46Z</time>
      </trkpt>
      <trkpt lat="48.2104" lon="4.96185">
        <time>2015-05-13T00:13:50Z</time>
      </trkpt>
      <trkpt lat="48.21029" lon="4.96182">
        <time>2015-05-13T00:13:51Z</time>
      </trkpt>
      <trkpt lat="48.21023" lon="4.96185">
        <time>2015-05-13T00:13:51Z</time>
      </trkpt>
      <trkpt lat="48.21015" lon="4.96192">
        <time>2015-05-13T00:13:52Z</time>
      </trkpt>
      <trkpt lat="48.21007" lon="4.96212">
        <time>2015-05-13T00:13:54Z</time>
      </trkpt>
      <trkpt lat="48.21" lon="4.96229">
        <time>2015-05-13T00:13:55Z</time>
      </trkpt>
      <trkpt lat="48.20991" lon="4.96244">
        <time>2015-05-13T00:13:56Z</time>
      </trkpt>
      <trkpt lat="48.20966" lon="4.96273">
        <time>2015-05-13T00:14:00Z</time>
      </trkpt>
      <trkpt lat="48.20917" lon="4.96324">
        <time>2015-05-13T00:14:06Z</time>
      </trkpt>
      <trkpt lat="48.20895" lon="4.9635">
        <time>2015-05-13T00:14:08Z</time>
      </trkpt>
      <trkpt lat="48.20883" lon="4.96368">
        <time>2015-05-13T00:14:10Z</time>
      </trkpt>
      <trkpt lat="48.20828" lon="4.96467">
        <time>2015-05-13T00:14:19Z</time>
      </trkpt>
      <trkpt lat="48.20814" lon="4.96482">
        <time>2015-05-13T00:14:20Z</time>
      </trkpt>
      <trkpt lat="48.20805" lon="4.96487">
        <time>2015-05-13T00:14:21Z</time>
      </trkpt>
      <trkpt lat="48.20791" lon="4.9649">
        <time>2015-05-13T00:14:23Z</time>
      </trkpt>
      <trkpt lat="48.20778" lon="4.96487">
        <time>2015-05-13T00:14:24Z</time>
      </trkpt>
      <trkpt lat="48.20723" lon="4.9646">
        <time>2015-05-13T00:14:30Z</time>
      </trkpt>
      <trkpt lat="48.20618" lon="4.96418">
        <time>2015-05-13T00:14:41Z</time>
      </trkpt>
      <trkpt lat="48.20579" lon="4.96404">
        <time>2015-05-13T00:14:45Z</time>
      </trkpt>
      <trkpt lat="48.20553" lon="4.96397">
        <time>2015-05-13T00:14:47Z</time>
      </trkpt>
      <trkpt lat="48.20541" lon="4.96397">
        <time>2015-05-13T00:14:48Z</time>
      </trkpt>
      <trkpt lat="48.2052" lon="4.96402">
        <time>2015-05-13T00:14:51Z</time>
      </trkpt>
      <trkpt lat="48.20502" lon="4.96409">
        <time>2015-05-13T00:14:52Z</time>
      </trkpt>
      <trkpt lat="48.20485" lon="4.96417">
        <time>2015-05-13T00:14:54Z</time>
      </trkpt>
      <trkpt lat="48.2046" lon="4.96432">
        <time>2015-05-13T00:14:57Z</time>
      </trkpt>
      <trkpt lat="48.20432" lon="4.96458">
        <time>2015-05-13T00:15:00Z</time>
      </trkpt>
      <trkpt lat="48.20394" lon="4.96503">
        <time>2015-05-13T00:15:05Z</time>
      </trkpt>
      <trkpt lat="48.20351" lon="4.96547">
        <time>2015-05-13T00:15:10Z</time>
      </trkpt>
      <trkpt lat="48.20305" lon="4.96606">
        <time>2015-05-13T00:15:16Z</time>
      </trkpt>
      <trkpt lat="48.20266" lon="4.96664">
        <time>2015-05-13T00:15:22Z</time>
      </trkpt>
      <trkpt lat="48.20235" lon="4.96731">
        <time>2015-05-13T00:15:27Z</time>
      </trkpt>
      <trkpt lat="48.20225" lon="4.9675">
        <time>2015-05-13T00:15:29Z</time>
      </trkpt>
      <trkpt lat="48.20214" lon="4.96761">
        <time>2015-05-13T00:15:30Z</time>
      </trkpt>
      <trkpt lat="48.20197" lon="4.9677">
        <time>2015-05-13T00:15:32Z</time>
      </trkpt>
      <trkpt lat="48.20158" lon="4.96785">
        <time>2015-05-13T00:15:36Z</time>
      </trkpt>
      <trkpt lat="48.20141" lon="4.96789">
        <time>2015-05-13T00:15:38Z</time>
      </trkpt>
      <trkpt lat="48.20126" lon="4.96787">
        <time>2015-05-13T00:15:39Z</time>
      </trkpt>
      <trkpt lat="48.20113" lon="4.96782">
        <time>2015-05-13T00:15:40Z</time>
      </trkpt>
      <trkpt lat="48.20104" lon="4.96781">
        <time>2015-05-13T00:15:41Z</time>
      </trkpt>
      <trkpt lat="48.20079" lon="4.96788">
        <time>2015-05-13T00:15:44Z</time>
      </trkpt>
      <trkpt lat="48.20061" lon="4.96792">
        <time>2015-05-13T00:15:46Z</time>
      </trkpt>
      <trkpt lat="48.20052" lon="4.96792">
        <time>2015-05-13T00:15:47Z</time>
      </trkpt>
      <trkpt lat="48.20037" lon="4.96788">
        <time>2015-05-13T00:15:48Z</time>
      </trkpt>
      <trkpt lat="48.20002" lon="4.9677">
        <time>2015-05-13T00:15:52Z</time>
      </trkpt>
      <trkpt lat="48.19994" lon="4.9677">
        <time>2015-05-13T00:15:53Z</time>
      </trkpt>
      <trkpt lat="48.19987" lon="4.96772">
        <time>2015-05-13T00:15:53Z</time>
      </trkpt>
      <trkpt lat="48.19957" lon="4.96791">
        <time>2015-05-13T00:15:56Z</time>
      </trkpt>
      <trkpt lat="48.19947" lon="4.96796">
        <time>2015-05-13T00:15:58Z</time>
      </trkpt>
      <trkpt lat="48.19922" lon="4.96803">
        <time>2015-05-13T00:16:00Z</time>
      </trkpt>
      <trkpt lat="48.19905" lon="4.96802">
        <time>2015-05-13T00:16:02Z</time>
      </trkpt>
      <trkpt lat="48.19893" lon="4.96799">
        <time>2015-05-13T00:16:03Z</time>
      </trkpt>
      <trkpt lat="48.19862" lon="4.96793">
        <time>2015-05-13T00:16:06Z</time>
      </trkpt>
      <trkpt lat="48.1985" lon="4.96792">
        <time>2015-05-13T00:16:07Z</time>
      </trkpt>
      <trkpt lat="48.19823" lon="4.96796">
        <time>2015-05-13T00:16:10Z</time>
      </trkpt>
      <trkpt lat="48.1981" lon="4.96802">
        <time>2015-05-13T00:16:11Z</time>
      </trkpt>
      <trkpt lat="48.19782" lon="4.9682">
        <time>2015-05-13T00:16:14Z</time>
      </trkpt>
      <trkpt lat="48.19717" lon="4.96873">
        <time>2015-05-13T00:16:22Z</time>
      </trkpt>
      <trkpt lat="48.1969" lon="4.96902">
        <time>2015-05-13T00:16:25Z</time>
      </trkpt>
      <trkpt lat="48.19651" lon="4.96952">
        <time>2015-05-13T00:16:30Z</time>
      </trkpt>
      <trkpt lat="48.19611" lon="4.97015">
        <time>2015-05-13T00:16:36Z</time>
      </trkpt>
      <trkpt lat="48.19595" lon="4.97043">
        <time>2015-05-13T00:16:38Z</time>
      </trkpt>
      <trkpt lat="48.19581" lon="4.9707">
        <time>2015-05-13T00:16:41Z</time>
      </trkpt>
      <trkpt lat="48.19571" lon="4.97098">
        <time>2015-05-13T00:16:43Z</time>
      </trkpt>
      <trkpt lat="48.19558" lon="4.97148">
        <time>2015-05-13T00:16:46Z</time>
      </trkpt>
      <trkpt lat="48.19551" lon="4.97194">
        <time>2015-05-13T00:16:50Z</time>
      </trkpt>
      <trkpt lat="48.1954" lon="4.97257">
        <time>2015-05-13T00:16:54Z</time>
      </trkpt>
      <trkpt lat="48.19531" lon="4.97294">
        <time>2015-05-13T00:16:56Z</time>
      </trkpt>
      <trkpt lat="48.19523" lon="4.97315">
        <time>2015-05-13T00:16:58Z</time>
      </trkpt>
      <trkpt lat="48.19509" lon="4.97342">
        <time>2015-05-13T00:17:00Z</time>
      </trkpt>
      <trkpt lat="48.19492" lon="4.97366">
        <time>2015-05-13T00:17:03Z</time>
      </trkpt>
      <trkpt lat="48.19479" lon="4.9738">
        <time>2015-05-13T00:17:04Z</time>
      </trkpt>
      <trkpt lat="48.19447" lon="4.97405">
        <time>2015-05-13T00:17:08Z</time>
      </trkpt>
      <trkpt lat="48.19416" lon="4.97422">
        <time>2015-05-13T00:17:11Z</time>
      </trkpt>
      <trkpt lat="48.19386" lon="4.9743">
        <time>2015-05-13T00:17:14Z</time>
      </trkpt>
      <trkpt lat="48.19339" lon="4.97431">
        <time>2015-05-13T00:17:19Z</time>
      </trkpt>
      <trkpt lat="48.1926" lon="4.97428">
        <time>2015-05-13T00:17:27Z</time>
      </trkpt>
      <trkpt lat="48.19177" lon="4.97426">
        <time>2015-05-13T00:17:35Z</time>
      </trkpt>
      <trkpt lat="48.19113" lon="4.97423">
        <time>2015-05-13T00:17:41Z</time>
      </trkpt>
      <trkpt lat="48.19059" lon="4.97421">
        <time>2015-05-13T00:17:47Z</time>
      </trkpt>
      <trkpt lat="48.19004" lon="4.97423">
        <time>2015-05-13T00:17:52Z</time>
      </trkpt>
      <trkpt lat="48.18976" lon="4.97418">
        <time>2015-05-13T00:17:55Z</time>
      </trkpt>
      <trkpt lat="48.18956" lon="4.9741">
        <time>2015-05-13T00:17:57Z</time>
      </trkpt>
      <trkpt lat="48.18916" lon="4.97385">
        <time>2015-05-13T00:18:02Z</time>
      </trkpt>
      <trkpt lat="48.18889" lon="4.97366">
        <time>2015-05-13T00:18:04Z</time>
      </trkpt>
      <trkpt lat="48.18865" lon="4.97345">
        <time>2015-05-13T00:18:07Z</time>
      </trkpt>
      <trkpt lat="48.18811" lon="4.97284">
        <time>2015-05-13T00:18:14Z</time>
      </trkpt>
      <trkpt lat="48.18778" lon="4.97246">
        <time>2015-05-13T00:18:18Z</time>
      </trkpt>
      <trkpt lat="48.18764" lon="4.97238">
        <time>2015-05-13T00:18:20Z</time>
      </trkpt>
      <trkpt lat="48.18747" lon="4.97238">
        <time>2015-05-13T00:18:21Z</time>
      </trkpt>
      <trkpt lat="48.18738" lon="4.9724">
        <time>2015-05-13T00:18:22Z</time>
      </trkpt>
      <trkpt lat="48.1873" lon="4.97245">
        <time>2015-05-13T00:18:23Z</time>
      </trkpt>
      <trkpt lat="48.18715" lon="4.97259">
        <time>2015-05-13T00:18:25Z</time>
      </trkpt>
      <trkpt lat="48.18695" lon="4.97299">
        <time>2015-05-13T00:18:28Z</time>
      </trkpt>
      <trkpt lat="48.18677" lon="4.97332">
        <time>2015-05-13T00:18:31Z</time>
      </trkpt>
      <trkpt lat="48.18667" lon="4.97346">
        <time>2015-05-13T00:18:32Z</time>
      </trkpt>
      <trkpt lat="48.18624" lon="4.97403">
        <time>2015-05-13T00:18:38Z</time>
      </trkpt>
      <trkpt lat="48.18576" lon="4.9746">
        <time>2015-05-13T00:18:44Z</time>
      </trkpt>
      <trkpt lat="48.18556" lon="4.97483">
        <time>2015-05-13T00:18:47Z</time>
      </trkpt>
      <trkpt lat="48.18534" lon="4.97508">
        <time>2015-05-13T00:18:49Z</time>
      </trkpt>
      <trkpt lat="48.18524" lon="4.97507">
        <time>2015-05-13T00:18:50Z</time>
      </trkpt>
      <trkpt lat="48.18534" lon="4.9749">
        <time>2015-05-13T00:18:52Z</time>
      </trkpt>
      <trkpt lat="48.18534" lon="4.9749">
        <time>2015-05-13T00:18:52Z</time>
      </trkpt>
      <trkpt lat="48.18508" lon="4.97535">
        <time>2015-05-13T00:18:56Z</time>
      </trkpt>
      <trkpt lat="48.18443" lon="4.97664">
        <time>2015-05-13T00:19:07Z</time>
      </trkpt>
      <trkpt lat="48.1844" lon="4.97677">
        <time>2015-05-13T00:19:08Z</time>
      </trkpt>
      <trkpt lat="48.18372" lon="4.9781">
        <time>2015-05-13T00:19:19Z</time>
      </trkpt>
      <trkpt lat="48.18389" lon="4.97838">
        <time>2015-05-13T00:19:21Z</time>
      </trkpt>
      <trkpt lat="48.18412" lon="4.97881">
        <time>2015-05-13T00:19:25Z</time>
      </trkpt>
      <trkpt lat="48.18424" lon="4.97899">
        <time>2015-05-13T00:19:27Z</time>
      </trkpt>
      <trkpt lat="48.18458" lon="4.97951">
        <time>2015-05-13T00:19:31Z</time>
      </trkpt>
      <trkpt lat="48.18468" lon="4.97978">
        <time>2015-05-13T00:19:34Z</time>
      </trkpt>
      <trkpt lat="48.18473" lon="4.97999">
        <time>2015-05-13T00:19:35Z</time>
      </trkpt>
      <trkpt lat="48.18478" lon="4.98054">
        <time>2015-05-13T00:19:39Z</time>
      </trkpt>
      <trkpt lat="48.18531" lon="4.98073">
        <time>2015-05-13T00:19:44Z</time>
      </trkpt>
      <trkpt lat="48.18584" lon="4.98088">
        <time>2015-05-13T00:19:50Z</time>
      </trkpt>
      <trkpt lat="48.18628" lon="4.98093">
        <time>2015-05-13T00:19:54Z</time>
      </trkpt>
      <trkpt lat="48.18648" lon="4.98098">
        <time>2015-05-13T00:19:56Z</time>
      </trkpt>
      <trkpt lat="48.18668" lon="4.98107">
        <time>2015-05-13T00:19:58Z</time>
      </trkpt>
      <trkpt lat="48.18697" lon="4.98129">
        <time>2015-05-13T00:20:01Z</time>
      </trkpt>
      <trkpt lat="48.1871" lon="4.98146">
        <time>2015-05-13T00:20:03Z</time>
      </trkpt>
      <trkpt lat="48.18724" lon="4.98172">
        <time>2015-05-13T00:20:05Z</time>
      </trkpt>
      <trkpt lat="48.18749" lon="4.9823">
        <time>2015-05-13T00:20:10Z</time>
      </trkpt>
      <trkpt lat="48.18797" lon="4.98399">
        <time>2015-05-13T00:20:22Z</time>
      </trkpt>
      <trkpt lat="48.18802" lon="4.9842">
        <time>2015-05-13T00:20:23Z</time>
      </trkpt>
      <trkpt lat="48.18811" lon="4.98478">
        <time>2015-05-13T00:20:27Z</time>
      </trkpt>
      <trkpt lat="48.18823" lon="4.9857">
        <time>2015-05-13T00:20:34Z</time>
      </trkpt>
      <trkpt lat="48.18851" lon="4.98731">
        <time>2015-05-13T00:20:45Z</time>
      </trkpt>
      <trkpt lat="48.18961" lon="4.99374">
        <time>2015-05-13T00:21:29Z</time>
      </trkpt>
      <trkpt lat="48.18963" lon="4.99405">
        <time>2015-05-13T00:21:31Z</time>
      </trkpt>
      <trkpt lat="48.18962" lon="4.99434">
        <time>2015-05-13T00:21:33Z</time>
      </trkpt>
      <trkpt lat="48.18945" lon="4.99575">
        <time>2015-05-13T00:21:42Z</time>
      </trkpt>
      <trkpt lat="48.18943" lon="4.99611">
        <time>2015-05-13T00:21:45Z</time>
      </trkpt>
      <trkpt lat="48.18945" lon="4.99649">
        <time>2015-05-13T00:21:47Z</time>
      </trkpt>
      <trkpt lat="48.18956" lon="4.9972">
        <time>2015-05-13T00:21:52Z</time>
      </trkpt>
      <trkpt lat="48.1898" lon="4.99801">
        <time>2015-05-13T00:21:58Z</time>
      </trkpt>
      <trkpt lat="48.19053" lon="5.00075">
        <time>2015-05-13T00:22:18Z</time>
      </trkpt>
      <trkpt lat="48.1912" lon="5.00331">
        <time>2015-05-13T00:22:36Z</time>
      </trkpt>
      <trkpt lat="48.19146" lon="5.00434">
        <time>2015-05-13T00:22:43Z</time>
      </trkpt>
      <trkpt lat="48.19158" lon="5.00492">
        <time>2015-05-13T00:22:47Z</time>
      </trkpt>
      <trkpt lat="48.19168" lon="5.00599">
        <time>2015-05-13T00:22:55Z</time>
      </trkpt>
      <trkpt lat="48.19182" lon="5.00713">
        <time>2015-05-13T00:23:02Z</time>
      </trkpt>
      <trkpt lat="48.19199" lon="5.0079">
        <time>2015-05-13T00:23:08Z</time>
      </trkpt>
      <trkpt lat="48.19227" lon="5.00893">
        <time>2015-05-13T00:23:15Z</time>
      </trkpt>
      <trkpt lat="48.19236" lon="5.00925">
        <time>2015-05-13T00:23:17Z</time>
      </trkpt>
      <trkpt lat="48.19262" lon="5.00999">
        <time>2015-05-13T00:23:23Z</time>
      </trkpt>
      <trkpt lat="48.19271" lon="5.01022">
        <time>2015-05-13T00:23:25Z</time>
      </trkpt>
      <trkpt lat="48.19271" lon="5.01022">
        <time>2015-05-13T00:23:25Z</time>
      </trkpt>
      <trkpt lat="48.19286" lon="5.01064">
        <time>2015-05-13T00:23:28Z</time>
      </trkpt>
      <trkpt lat="48.19298" lon="5.01108">
        <time>2015-05-13T00:23:31Z</time>
      </trkpt>
      <trkpt lat="48.19328" lon="5.01344">
        <time>2015-05-13T00:23:47Z</time>
      </trkpt>
      <trkpt lat="48.19363" lon="5.01583">
        <time>2015-05-13T00:24:03Z</time>
      </trkpt>
      <trkpt lat="48.1938" lon="5.01664">
        <time>2015-05-13T00:24:09Z</time>
      </trkpt>
      <trkpt lat="48.19414" lon="5.01769">
        <time>2015-05-13T00:24:17Z</time>
      </trkpt>
      <trkpt lat="48.19452" lon="5.01878">
        <time>2015-05-13T00:24:25Z</time>
      </trkpt>
      <trkpt lat="48.19509" lon="5.02058">
        <time>2015-05-13T00:24:38Z</time>
      </trkpt>
      <trkpt lat="48.1956" lon="5.02198">
        <time>2015-05-13T00:24:49Z</time>
      </trkpt>
      <trkpt lat="48.19596" lon="5.02284">
        <time>2015-05-13T00:24:55Z</time>
      </trkpt>
      <trkpt lat="48.19623" lon="5.0234">
        <time>2015-05-13T00:25:00Z</time>
      </trkpt>
      <trkpt lat="48.1965" lon="5.02378">
        <time>2015-05-13T00:25:04Z</time>
      </trkpt>
      <trkpt lat="48.19706" lon="5.0243">
        <time>2015-05-13T00:25:10Z</time>
      </trkpt>
      <trkpt lat="48.19827" lon="5.02524">
        <time>2015-05-13T00:25:24Z</time>
      </trkpt>
      <trkpt lat="48.19846" lon="5.02541">
        <time>2015-05-13T00:25:26Z</time>
      </trkpt>
      <trkpt lat="48.19861" lon="5.0256">
        <time>2015-05-13T00:25:28Z</time>
      </trkpt>
      <trkpt lat="48.19871" lon="5.02576">
        <time>2015-05-13T00:25:29Z</time>
      </trkpt>
      <trkpt lat="48.1989" lon="5.02617">
        <time>2015-05-13T00:25:33Z</time>
      </trkpt>
      <trkpt lat="48.19919" lon="5.02682">
        <time>2015-05-13T00:25:38Z</time>
      </trkpt>
      <trkpt lat="48.19939" lon="5.0272">
        <time>2015-05-13T00:25:41Z</time>
      </trkpt>
      <trkpt lat="48.19987" lon="5.02805">
        <time>2015-05-13T00:25:49Z</time>
      </trkpt>
      <trkpt lat="48.19996" lon="5.02829">
        <time>2015-05-13T00:25:50Z</time>
      </trkpt>
      <trkpt lat="48.20011" lon="5.02888">
        <time>2015-05-13T00:25:55Z</time>
      </trkpt>
      <trkpt lat="48.20026" lon="5.0296">
        <time>2015-05-13T00:26:00Z</time>
      </trkpt>
      <trkpt lat="48.20034" lon="5.03019">
        <time>2015-05-13T00:26:04Z</time>
      </trkpt>
      <trkpt lat="48.20038" lon="5.0309">
        <time>2015-05-13T00:26:08Z</time>
      </trkpt>
      <trkpt lat="48.20037" lon="5.03202">
        <time>2015-05-13T00:26:16Z</time>
      </trkpt>
      <trkpt lat="48.20035" lon="5.03257">
        <time>2015-05-13T00:26:20Z</time>
      </trkpt>
      <trkpt lat="48.20038" lon="5.0329">
        <time>2015-05-13T00:26:22Z</time>
      </trkpt>
      <trkpt lat="48.20039" lon="5.03303">
        <time>2015-05-13T00:26:23Z</time>
      </trkpt>
      <trkpt lat="48.20037" lon="5.03336">
        <time>2015-05-13T00:26:25Z</time>
      </trkpt>
      <trkpt lat="48.20019" lon="5.0341">
        <time>2015-05-13T00:26:30Z</time>
      </trkpt>
      <trkpt lat="48.20007" lon="5.0347">
        <time>2015-05-13T00:26:34Z</time>
      </trkpt>
      <trkpt lat="48.19998" lon="5.03542">
        <time>2015-05-13T00:26:39Z</time>
      </trkpt>
      <trkpt lat="48.19996" lon="5.03585">
        <time>2015-05-13T00:26:42Z</time>
      </trkpt>
      <trkpt lat="48.20003" lon="5.03614">
        <time>2015-05-13T00:26:44Z</time>
      </trkpt>
      <trkpt lat="48.2002" lon="5.0365">
        <time>2015-05-13T00:26:47Z</time>
      </trkpt>
      <trkpt lat="48.20047" lon="5.03691">
        <time>2015-05-13T00:26:51Z</time>
      </trkpt>
      <trkpt lat="48.20057" lon="5.03712">
        <time>2015-05-13T00:26:52Z</time>
      </trkpt>
      <trkpt lat="48.20073" lon="5.03754">
        <time>2015-05-13T00:26:56Z</time>
      </trkpt>
      <trkpt lat="48.2008" lon="5.03781">
        <time>2015-05-13T00:26:58Z</time>
      </trkpt>
      <trkpt lat="48.2009" lon="5.03836">
        <time>2015-05-13T00:27:01Z</time>
      </trkpt>
      <trkpt lat="48.20104" lon="5.03882">
        <time>2015-05-13T00:27:05Z</time>
      </trkpt>
      <trkpt lat="48.20112" lon="5.03911">
        <time>2015-05-13T00:27:07Z</time>
      </trkpt>
      <trkpt lat="48.20114" lon="5.03928">
        <time>2015-05-13T00:27:08Z</time>
      </trkpt>
      <trkpt lat="48.2011" lon="5.03961">
        <time>2015-05-13T00:27:10Z</time>
      </trkpt>
      <trkpt lat="48.2011" lon="5.0399">
        <time>2015-05-13T00:27:12Z</time>
      </trkpt>
      <trkpt lat="48.20117" lon="5.04025">
        <time>2015-05-13T00:27:15Z</time>
      </trkpt>
      <trkpt lat="48.20122" lon="5.04043">
        <time>2015-05-13T00:27:16Z</time>
      </trkpt>
      <trkpt lat="48.20135" lon="5.04078">
        <time>2015-05-13T00:27:19Z</time>
      </trkpt>
      <trkpt lat="48.20135" lon="5.04078">
        <time>2015-05-13T00:27:19Z</time>
      </trkpt>
      <trkpt lat="48.20152" lon="5.04114">
        <time>2015-05-13T00:27:21Z</time>
      </trkpt>
      <trkpt lat="48.20181" lon="5.04161">
        <time>2015-05-13T00:27:26Z</time>
      </trkpt>
      <trkpt lat="48.20193" lon="5.04192">
        <time>2015-05-13T00:27:28Z</time>
      </trkpt>
      <trkpt lat="48.20202" lon="5.04256">
        <time>2015-05-13T00:27:32Z</time>
      </trkpt>
      <trkpt lat="48.2021" lon="5.04356">
        <time>2015-05-13T00:27:39Z</time>
      </trkpt>
      <trkpt lat="48.20209" lon="5.04393">
        <time>2015-05-13T00:27:42Z</time>
      </trkpt>
      <trkpt lat="48.20204" lon="5.04424">
        <time>2015-05-13T00:27:44Z</time>
      </trkpt>
      <trkpt lat="48.20192" lon="5.04453">
        <time>2015-05-13T00:27:46Z</time>
      </trkpt>
      <trkpt lat="48.20174" lon="5.04475">
        <time>2015-05-13T00:27:48Z</time>
      </trkpt>
      <trkpt lat="48.20149" lon="5.045">
        <time>2015-05-13T00:27:51Z</time>
      </trkpt>
      <trkpt lat="48.20139" lon="5.04517">
        <time>2015-05-13T00:27:53Z</time>
      </trkpt>
      <trkpt lat="48.20126" lon="5.04549">
        <time>2015-05-13T00:27:55Z</time>
      </trkpt>
      <trkpt lat="48.20096" lon="5.04663">
        <time>2015-05-13T00:28:03Z</time>
      </trkpt>
      <trkpt lat="48.2008" lon="5.04704">
        <time>2015-05-13T00:28:07Z</time>
      </trkpt>
      <trkpt lat="48.20045" lon="5.04782">
        <time>2015-05-13T00:28:13Z</time>
      </trkpt>
      <trkpt lat="48.20014" lon="5.04866">
        <time>2015-05-13T00:28:19Z</time>
      </trkpt>
      <trkpt lat="48.19995" lon="5.04928">
        <time>2015-05-13T00:28:24Z</time>
      </trkpt>
      <trkpt lat="48.19982" lon="5.04969">
        <time>2015-05-13T00:28:27Z</time>
      </trkpt>
      <trkpt lat="48.19968" lon="5.05005">
        <time>2015-05-13T00:28:30Z</time>
      </trkpt>
      <trkpt lat="48.19955" lon="5.05033">
        <time>2015-05-13T00:28:32Z</time>
      </trkpt>
      <trkpt lat="48.19918" lon="5.05099">
        <time>2015-05-13T00:28:38Z</time>
      </trkpt>
      <trkpt lat="48.19907" lon="5.05122">
        <time>2015-05-13T00:28:39Z</time>
      </trkpt>
      <trkpt lat="48.199" lon="5.05149">
        <time>2015-05-13T00:28:41Z</time>
      </trkpt>
      <trkpt lat="48.19898" lon="5.05171">
        <time>2015-05-13T00:28:43Z</time>
      </trkpt>
      <trkpt lat="48.19897" lon="5.05196">
        <time>2015-05-13T00:28:45Z</time>
      </trkpt>
      <trkpt lat="48.19891" lon="5.05384">
        <time>2015-05-13T00:28:57Z</time>
      </trkpt>
      <trkpt lat="48.19886" lon="5.05522">
        <time>2015-05-13T00:29:06Z</time>
      </trkpt>
      <trkpt lat="48.19888" lon="5.05557">
        <time>2015-05-13T00:29:09Z</time>
      </trkpt>
      <trkpt lat="48.19894" lon="5.05589">
        <time>2015-05-13T00:29:11Z</time>
      </trkpt>
      <trkpt lat="48.19902" lon="5.05617">
        <time>2015-05-13T00:29:13Z</time>
      </trkpt>
      <trkpt lat="48.19912" lon="5.05636">
        <time>2015-05-13T00:29:14Z</time>
      </trkpt>
      <trkpt lat="48.19926" lon="5.05657">
        <time>2015-05-13T00:29:16Z</time>
      </trkpt>
      <trkpt lat="48.19944" lon="5.05671">
        <time>2015-05-13T00:29:18Z</time>
      </trkpt>
      <trkpt lat="48.19973" lon="5.05681">
        <time>2015-05-13T00:29:21Z</time>
      </trkpt>
      <trkpt lat="48.19984" lon="5.05686">
        <time>2015-05-13T00:29:23Z</time>
      </trkpt>
      <trkpt lat="48.19991" lon="5.05691">
        <time>2015-05-13T00:29:23Z</time>
      </trkpt>
      <trkpt lat="48.19999" lon="5.057">
        <time>2015-05-13T00:29:24Z</time>
      </trkpt>
      <trkpt lat="48.20007" lon="5.05714">
        <time>2015-05-13T00:29:26Z</time>
      </trkpt>
      <trkpt lat="48.20012" lon="5.05728">
        <time>2015-05-13T00:29:27Z</time>
      </trkpt>
      <trkpt lat="48.20015" lon="5.05753">
        <time>2015-05-13T00:29:28Z</time>
      </trkpt>
      <trkpt lat="48.20014" lon="5.05783">
        <time>2015-05-13T00:29:30Z</time>
      </trkpt>
      <trkpt lat="48.20009" lon="5.05805">
        <time>2015-05-13T00:29:32Z</time>
      </trkpt>
      <trkpt lat="48.19999" lon="5.05828">
        <time>2015-05-13T00:29:34Z</time>
      </trkpt>
      <trkpt lat="48.19983" lon="5.05844">
        <time>2015-05-13T00:29:36Z</time>
      </trkpt>
      <trkpt lat="48.19966" lon="5.05852">
        <time>2015-05-13T00:29:37Z</time>
      </trkpt>
      <trkpt lat="48.19943" lon="5.05855">
        <time>2015-05-13T00:29:40Z</time>
      </trkpt>
      <trkpt lat="48.19899" lon="5.05857">
        <time>2015-05-13T00:29:44Z</time>
      </trkpt>
      <trkpt lat="48.19874" lon="5.05859">
        <time>2015-05-13T00:29:46Z</time>
      </trkpt>
      <trkpt lat="48.19809" lon="5.05871">
        <time>2015-05-13T00:29:53Z</time>
      </trkpt>
      <trkpt lat="48.19776" lon="5.05881">
        <time>2015-05-13T00:29:56Z</time>
      </trkpt>
      <trkpt lat="48.19758" lon="5.0589">
        <time>2015-05-13T00:29:58Z</time>
      </trkpt>
      <trkpt lat="48.19731" lon="5.05911">
        <time>2015-05-13T00:30:01Z</time>
      </trkpt>
      <trkpt lat="48.19662" lon="5.05973">
        <time>2015-05-13T00:30:09Z</time>
      </trkpt>
      <trkpt lat="48.19649" lon="5.05985">
        <time>2015-05-13T00:30:11Z</time>
      </trkpt>
      <trkpt lat="48.19625" lon="5.06013">
        <time>2015-05-13T00:30:14Z</time>
      </trkpt>
      <trkpt lat="48.19605" lon="5.06046">
        <time>2015-05-13T00:30:17Z</time>
      </trkpt>
      <trkpt lat="48.19588" lon="5.06089">
        <time>2015-05-13T00:30:20Z</time>
      </trkpt>
      <trkpt lat="48.19572" lon="5.06149">
        <time>2015-05-13T00:30:24Z</time>
      </trkpt>
      <trkpt lat="48.19559" lon="5.06224">
        <time>2015-05-13T00:30:30Z</time>
      </trkpt>
      <trkpt lat="48.19549" lon="5.06286">
        <time>2015-05-13T00:30:34Z</time>
      </trkpt>
      <trkpt lat="48.19541" lon="5.06311">
        <time>2015-05-13T00:30:36Z</time>
      </trkpt>
      <trkpt lat="48.19534" lon="5.06319">
        <time>2015-05-13T00:30:37Z</time>
      </trkpt>
      <trkpt lat="48.19523" lon="5.06325">
        <time>2015-05-13T00:30:38Z</time>
      </trkpt>
      <trkpt lat="48.19484" lon="5.06329">
        <time>2015-05-13T00:30:42Z</time>
      </trkpt>
      <trkpt lat="48.19466" lon="5.06332">
        <time>2015-05-13T00:30:43Z</time>
      </trkpt>
      <trkpt lat="48.19457" lon="5.06336">
        <time>2015-05-13T00:30:44Z</time>
      </trkpt>
      <trkpt lat="48.19437" lon="5.06355">
        <time>2015-05-13T00:30:47Z</time>
      </trkpt>
      <trkpt lat="48.19349" lon="5.06455">
        <time>2015-05-13T00:30:58Z</time>
      </trkpt>
      <trkpt lat="48.19321" lon="5.06487">
        <time>2015-05-13T00:31:01Z</time>
      </trkpt>
      <trkpt lat="48.193" lon="5.06501">
        <time>2015-05-13T00:31:04Z</time>
      </trkpt>
      <trkpt lat="48.19293" lon="5.06508">
        <time>2015-05-13T00:31:04Z</time>
      </trkpt>
      <trkpt lat="48.19288" lon="5.06517">
        <time>2015-05-13T00:31:05Z</time>
      </trkpt>
      <trkpt lat="48.19286" lon="5.06531">
        <time>2015-05-13T00:31:06Z</time>
      </trkpt>
      <trkpt lat="48.19286" lon="5.06531">
        <time>2015-05-13T00:31:06Z</time>
      </trkpt>
      <trkpt lat="48.1929" lon="5.06575">
        <time>2015-05-13T00:31:09Z</time>
      </trkpt>
      <trkpt lat="48.19299" lon="5.06676">
        <time>2015-05-13T00:31:16Z</time>
      </trkpt>
      <trkpt lat="48.19301" lon="5.0673">
        <time>2015-05-13T00:31:19Z</time>
      </trkpt>
      <trkpt lat="48.19305" lon="5.06761">
        <time>2015-05-13T00:31:22Z</time>
      </trkpt>
      <trkpt lat="48.1931" lon="5.06783">
        <time>2015-05-13T00:31:23Z</time>
      </trkpt>
      <trkpt lat="48.19342" lon="5.06887">
        <time>2015-05-13T00:31:31Z</time>
      </trkpt>
      <trkpt lat="48.19354" lon="5.06934">
        <time>2015-05-13T00:31:34Z</time>
      </trkpt>
      <trkpt lat="48.19358" lon="5.0696">
        <time>2015-05-13T00:31:36Z</time>
      </trkpt>
      <trkpt lat="48.19364" lon="5.07006">
        <time>2015-05-13T00:31:39Z</time>
      </trkpt>
      <trkpt lat="48.19363" lon="5.07056">
        <time>2015-05-13T00:31:42Z</time>
      </trkpt>
      <trkpt lat="48.19349" lon="5.07182">
        <time>2015-05-13T00:31:51Z</time>
      </trkpt>
      <trkpt lat="48.19346" lon="5.07257">
        <time>2015-05-13T00:31:56Z</time>
      </trkpt>
      <trkpt lat="48.19351" lon="5.07337">
        <time>2015-05-13T00:32:01Z</time>
      </trkpt>
      <trkpt lat="48.19356" lon="5.07373">
        <time>2015-05-13T00:32:04Z</time>
      </trkpt>
      <trkpt lat="48.19367" lon="5.07419">
        <time>2015-05-13T00:32:07Z</time>
      </trkpt>
      <trkpt lat="48.19388" lon="5.07486">
        <time>2015-05-13T00:32:12Z</time>
      </trkpt>
      <trkpt lat="48.19396" lon="5.07508">
        <time>2015-05-13T00:32:13Z</time>
      </trkpt>
      <trkpt lat="48.19444" lon="5.07602">
        <time>2015-05-13T00:32:21Z</time>
      </trkpt>
      <trkpt lat="48.19521" lon="5.07753">
        <time>2015-05-13T00:32:34Z</time>
      </trkpt>
      <trkpt lat="48.19563" lon="5.07835">
        <time>2015-05-13T00:32:41Z</time>
      </trkpt>
      <trkpt lat="48.19592" lon="5.07888">
        <time>2015-05-13T00:32:45Z</time>
      </trkpt>
      <trkpt lat="48.19643" lon="5.0797">
        <time>2015-05-13T00:32:53Z</time>
      </trkpt>
      <trkpt lat="48.19736" lon="5.08137">
        <time>2015-05-13T00:33:07Z</time>
      </trkpt>
      <trkpt lat="48.19772" lon="5.08203">
        <time>2015-05-13T00:33:13Z</time>
      </trkpt>
      <trkpt lat="48.19788" lon="5.08238">
        <time>2015-05-13T00:33:16Z</time>
      </trkpt>
      <trkpt lat="48.19796" lon="5.08265">
        <time>2015-05-13T00:33:18Z</time>
      </trkpt>
      <trkpt lat="48.19796" lon="5.08289">
        <time>2015-05-13T00:33:19Z</time>
      </trkpt>
      <trkpt lat="48.19792" lon="5.08302">
        <time>2015-05-13T00:33:20Z</time>
      </trkpt>
      <trkpt lat="48.19785" lon="5.08316">
        <time>2015-05-13T00:33:21Z</time>
      </trkpt>
      <trkpt lat="48.19772" lon="5.08337">
        <time>2015-05-13T00:33:23Z</time>
      </trkpt>
      <trkpt lat="48.1975" lon="5.08365">
        <time>2015-05-13T00:33:26Z</time>
      </trkpt>
      <trkpt lat="48.19734" lon="5.08371">
        <time>2015-05-13T00:33:28Z</time>
      </trkpt>
      <trkpt lat="48.19696" lon="5.08389">
        <time>2015-05-13T00:33:32Z</time>
      </trkpt>
      <trkpt lat="48.19682" lon="5.08397">
        <time>2015-05-13T00:33:33Z</time>
      </trkpt>
      <trkpt lat="48.19682" lon="5.08397">
        <time>2015-05-13T00:33:33Z</time>
      </trkpt>
      <trkpt lat="48.1967" lon="5.08408">
        <time>2015-05-13T00:33:35Z</time>
      </trkpt>
      <trkpt lat="48.19665" lon="5.08418">
        <time>2015-05-13T00:33:36Z</time>
      </trkpt>
      <trkpt lat="48.19657" lon="5.0845">
        <time>2015-05-13T00:33:38Z</time>
      </trkpt>
      <trkpt lat="48.19656" lon="5.08478">
        <time>2015-05-13T00:33:40Z</time>
      </trkpt>
      <trkpt lat="48.19664" lon="5.0852">
        <time>2015-05-13T00:33:43Z</time>
      </trkpt>
      <trkpt lat="48.19665" lon="5.08534">
        <time>2015-05-13T00:33:44Z</time>
      </trkpt>
      <trkpt lat="48.19664" lon="5.08542">
        <time>2015-05-13T00:33:44Z</time>
      </trkpt>
      <trkpt lat="48.19658" lon="5.08552">
        <time>2015-05-13T00:33:45Z</time>
      </trkpt>
      <trkpt lat="48.19648" lon="5.08563">
        <time>2015-05-13T00:33:46Z</time>
      </trkpt>
      <trkpt lat="48.19635" lon="5.08573">
        <time>2015-05-13T00:33:48Z</time>
      </trkpt>
      <trkpt lat="48.19487" lon="5.08668">
        <time>2015-05-13T00:34:04Z</time>
      </trkpt>
      <trkpt lat="48.19417" lon="5.08717">
        <time>2015-05-13T00:34:11Z</time>
      </trkpt>
      <trkpt lat="48.19403" lon="5.08729">
        <time>2015-05-13T00:34:13Z</time>
      </trkpt>
      <trkpt lat="48.19391" lon="5.08746">
        <time>2015-05-13T00:34:15Z</time>
      </trkpt>
      <trkpt lat="48.19381" lon="5.08771">
        <time>2015-05-13T00:34:17Z</time>
      </trkpt>
      <trkpt lat="48.19373" lon="5.08825">
        <time>2015-05-13T00:34:20Z</time>
      </trkpt>
      <trkpt lat="48.19362" lon="5.0889">
        <time>2015-05-13T00:34:25Z</time>
      </trkpt>
      <trkpt lat="48.1935" lon="5.08919">
        <time>2015-05-13T00:34:27Z</time>
      </trkpt>
      <trkpt lat="48.19312" lon="5.08984">
        <time>2015-05-13T00:34:33Z</time>
      </trkpt>
      <trkpt lat="48.19295" lon="5.09018">
        <time>2015-05-13T00:34:36Z</time>
      </trkpt>
      <trkpt lat="48.19288" lon="5.09037">
        <time>2015-05-13T00:34:37Z</time>
      </trkpt>
      <trkpt lat="48.19259" lon="5.09124">
        <time>2015-05-13T00:34:43Z</time>
      </trkpt>
      <trkpt lat="48.19197" lon="5.09309">
        <time>2015-05-13T00:34:57Z</time>
      </trkpt>
      <trkpt lat="48.19184" lon="5.09361">
        <time>2015-05-13T00:35:01Z</time>
      </trkpt>
      <trkpt lat="48.1918" lon="5.09394">
        <time>2015-05-13T00:35:03Z</time>
      </trkpt>
      <trkpt lat="48.19181" lon="5.09427">
        <time>2015-05-13T00:35:05Z</time>
      </trkpt>
      <trkpt lat="48.192" lon="5.09572">
        <time>2015-05-13T00:35:15Z</time>
      </trkpt>
      <trkpt lat="48.19213" lon="5.09688">
        <time>2015-05-13T00:35:23Z</time>
      </trkpt>
      <trkpt lat="48.19214" lon="5.09724">
        <time>2015-05-13T00:35:25Z</time>
      </trkpt>
      <trkpt lat="48.1921" lon="5.09756">
        <time>2015-05-13T00:35:28Z</time>
      </trkpt>
      <trkpt lat="48.19206" lon="5.09776">
        <time>2015-05-13T00:35:29Z</time>
      </trkpt>
      <trkpt lat="48.19199" lon="5.09796">
        <time>2015-05-13T00:35:30Z</time>
      </trkpt>
      <trkpt lat="48.19162" lon="5.09872">
        <time>2015-05-13T00:35:37Z</time>
      </trkpt>
      <trkpt lat="48.19131" lon="5.0994">
        <time>2015-05-13T00:35:42Z</time>
      </trkpt>
      <trkpt lat="48.19091" lon="5.10021">
        <time>2015-05-13T00:35:49Z</time>
      </trkpt>
      <trkpt lat="48.19067" lon="5.10056">
        <time>2015-05-13T00:35:52Z</time>
      </trkpt>
      <trkpt lat="48.18891" lon="5.103">
        <time>2015-05-13T00:36:16Z</time>
      </trkpt>
      <trkpt lat="48.18779" lon="5.10459">
        <time>2015-05-13T00:36:32Z</time>
      </trkpt>
      <trkpt lat="48.18763" lon="5.10477">
        <time>2015-05-13T00:36:34Z</time>
      </trkpt>
      <trkpt lat="48.18751" lon="5.10487">
        <time>2015-05-13T00:36:35Z</time>
      </trkpt>
      <trkpt lat="48.18732" lon="5.10496">
        <time>2015-05-13T00:36:37Z</time>
      </trkpt>
      <trkpt lat="48.18712" lon="5.10499">
        <time>2015-05-13T00:36:39Z</time>
      </trkpt>
      <trkpt lat="48.18701" lon="5.10503">
        <time>2015-05-13T00:36:40Z</time>
      </trkpt>
      <trkpt lat="48.18689" lon="5.1051">
        <time>2015-05-13T00:36:41Z</time>
      </trkpt>
      <trkpt lat="48.18672" lon="5.10531">
        <time>2015-05-13T00:36:43Z</time>
      </trkpt>
      <trkpt lat="48.18657" lon="5.10561">
        <time>2015-05-13T00:36:46Z</time>
      </trkpt>
      <trkpt lat="48.1865" lon="5.10582">
        <time>2015-05-13T00:36:48Z</time>
      </trkpt>
      <trkpt lat="48.18648" lon="5.10607">
        <time>2015-05-13T00:36:49Z</time>
      </trkpt>
      <trkpt lat="48.18652" lon="5.10632">
        <time>2015-05-13T00:36:51Z</time>
      </trkpt>
      <trkpt lat="48.18659" lon="5.10667">
        <time>2015-05-13T00:36:53Z</time>
      </trkpt>
      <trkpt lat="48.1866" lon="5.10717">
        <time>2015-05-13T00:36:57Z</time>
      </trkpt>
      <trkpt lat="48.18669" lon="5.10782">
        <time>2015-05-13T00:37:01Z</time>
      </trkpt>
      <trkpt lat="48.18685" lon="5.10846">
        <time>2015-05-13T00:37:06Z</time>
      </trkpt>
      <trkpt lat="48.18672" lon="5.10858">
        <time>2015-05-13T00:37:07Z</time>
      </trkpt>
      <trkpt lat="48.18616" lon="5.10913">
        <time>2015-05-13T00:37:14Z</time>
      </trkpt>
      <trkpt lat="48.18574" lon="5.10957">
        <time>2015-05-13T00:37:19Z</time>
      </trkpt>
      <trkpt lat="48.18528" lon="5.11001">
        <time>2015-05-13T00:37:24Z</time>
      </trkpt>
      <trkpt lat="48.18511" lon="5.11017">
        <time>2015-05-13T00:37:26Z</time>
      </trkpt>
      <trkpt lat="48.18484" lon="5.11046">
        <time>2015-05-13T00:37:30Z</time>
      </trkpt>
      <trkpt lat="48.18438" lon="5.11111">
        <time>2015-05-13T00:37:36Z</time>
      </trkpt>
      <trkpt lat="48.18423" lon="5.11126">
        <time>2015-05-13T00:37:38Z</time>
      </trkpt>
      <trkpt lat="48.18414" lon="5.11129">
        <time>2015-05-13T00:37:39Z</time>
      </trkpt>
      <trkpt lat="48.18411" lon="5.11128">
        <time>2015-05-13T00:37:39Z</time>
      </trkpt>
      <trkpt lat="48.184" lon="5.11121">
        <time>2015-05-13T00:37:40Z</time>
      </trkpt>
      <trkpt lat="48.18347" lon="5.11066">
        <time>2015-05-13T00:37:47Z</time>
      </trkpt>
      <trkpt lat="48.18294" lon="5.11014">
        <time>2015-05-13T00:37:53Z</time>
      </trkpt>
      <trkpt lat="48.18203" lon="5.10933">
        <time>2015-05-13T00:38:04Z</time>
      </trkpt>
      <trkpt lat="48.1816" lon="5.109">
        <time>2015-05-13T00:38:08Z</time>
      </trkpt>
      <trkpt lat="48.18125" lon="5.10875">
        <time>2015-05-13T00:38:12Z</time>
      </trkpt>
      <trkpt lat="48.18091" lon="5.10843">
        <time>2015-05-13T00:38:16Z</time>
      </trkpt>
      <trkpt lat="48.18002" lon="5.10752">
        <time>2015-05-13T00:38:27Z</time>
      </trkpt>
      <trkpt lat="48.17958" lon="5.107">
        <time>2015-05-13T00:38:33Z</time>
      </trkpt>
      <trkpt lat="48.17772" lon="5.10455">
        <time>2015-05-13T00:38:57Z</time>
      </trkpt>
      <trkpt lat="48.1774" lon="5.10416">
        <time>2015-05-13T00:39:01Z</time>
      </trkpt>
      <trkpt lat="48.17693" lon="5.10369">
        <time>2015-05-13T00:39:07Z</time>
      </trkpt>
      <trkpt lat="48.17554" lon="5.10242">
        <time>2015-05-13T00:39:23Z</time>
      </trkpt>
      <trkpt lat="48.17493" lon="5.10187">
        <time>2015-05-13T00:39:30Z</time>
      </trkpt>
      <trkpt lat="48.1745" lon="5.10158">
        <time>2015-05-13T00:39:35Z</time>
      </trkpt>
      <trkpt lat="48.17404" lon="5.10129">
        <time>2015-05-13T00:39:40Z</time>
      </trkpt>
      <trkpt lat="48.17211" lon="5.10006">
        <time>2015-05-13T00:40:01Z</time>
      </trkpt>
      <trkpt lat="48.17123" lon="5.09972">
        <time>2015-05-13T00:40:10Z</time>
      </trkpt>
      <trkpt lat="48.17031" lon="5.09934">
        <time>2015-05-13T00:40:19Z</time>
      </trkpt>
      <trkpt lat="48.16974" lon="5.09905">
        <time>2015-05-13T00:40:25Z</time>
      </trkpt>
      <trkpt lat="48.16919" lon="5.09867">
        <time>2015-05-13T00:40:31Z</time>
      </trkpt>
      <trkpt lat="48.16835" lon="5.09802">
        <time>2015-05-13T00:40:41Z</time>
      </trkpt>
      <trkpt lat="48.16699" lon="5.09693">
        <time>2015-05-13T00:40:56Z</time>
      </trkpt>
      <trkpt lat="48.16653" lon="5.09648">
        <time>2015-05-13T00:41:02Z</time>
      </trkpt>
      <trkpt lat="48.16596" lon="5.09588">
        <time>2015-05-13T00:41:09Z</time>
      </trkpt>
      <trkpt lat="48.16539" lon="5.09527">
        <time>2015-05-13T00:41:16Z</time>
      </trkpt>
      <trkpt lat="48.16539" lon="5.09527">
        <time>2015-05-13T00:41:16Z</time>
      </trkpt>
      <trkpt lat="48.16499" lon="5.09485">
        <time>2015-05-13T00:41:21Z</time>
      </trkpt>
      <trkpt lat="48.1647" lon="5.0946">
        <time>2015-05-13T00:41:24Z</time>
      </trkpt>
      <trkpt lat="48.16403" lon="5.09411">
        <time>2015-05-13T00:41:31Z</time>
      </trkpt>
      <trkpt lat="48.16327" lon="5.09355">
        <time>2015-05-13T00:41:40Z</time>
      </trkpt>
      <trkpt lat="48.16295" lon="5.09334">
        <time>2015-05-13T00:41:43Z</time>
      </trkpt>
      <trkpt lat="48.16233" lon="5.09298">
        <time>2015-05-13T00:41:50Z</time>
      </trkpt>
      <trkpt lat="48.1618" lon="5.0926">
        <time>2015-05-13T00:41:56Z</time>
      </trkpt>
      <trkpt lat="48.16158" lon="5.09246">
        <time>2015-05-13T00:41:58Z</time>
      </trkpt>
      <trkpt lat="48.16119" lon="5.09222">
        <time>2015-05-13T00:42:02Z</time>
      </trkpt>
      <trkpt lat="48.16092" lon="5.09208">
        <time>2015-05-13T00:42:05Z</time>
      </trkpt>
      <trkpt lat="48.16069" lon="5.092">
        <time>2015-05-13T00:42:08Z</time>
      </trkpt>
      <trkpt lat="48.16026" lon="5.09193">
        <time>2015-05-13T00:42:12Z</time>
      </trkpt>
      <trkpt lat="48.16004" lon="5.09188">
        <time>2015-05-13T00:42:14Z</time>
      </trkpt>
      <trkpt lat="48.15979" lon="5.09178">
        <time>2015-05-13T00:42:17Z</time>
      </trkpt>
      <trkpt lat="48.15943" lon="5.09162">
        <time>2015-05-13T00:42:20Z</time>
      </trkpt>
      <trkpt lat="48.15901" lon="5.09145">
        <time>2015-05-13T00:42:25Z</time>
      </trkpt>
      <trkpt lat="48.15865" lon="5.09136">
        <time>2015-05-13T00:42:28Z</time>
      </trkpt>
      <trkpt lat="48.15799" lon="5.0913">
        <time>2015-05-13T00:42:35Z</time>
      </trkpt>
      <trkpt lat="48.1578" lon="5.09127">
        <time>2015-05-13T00:42:37Z</time>
      </trkpt>
      <trkpt lat="48.1576" lon="5.09121">
        <time>2015-05-13T00:42:39Z</time>
      </trkpt>
      <trkpt lat="48.15732" lon="5.09111">
        <time>2015-05-13T00:42:42Z</time>
      </trkpt>
      <trkpt lat="48.15716" lon="5.09108">
        <time>2015-05-13T00:42:43Z</time>
      </trkpt>
      <trkpt lat="48.15659" lon="5.09094">
        <time>2015-05-13T00:42:49Z</time>
      </trkpt>
      <trkpt lat="48.15605" lon="5.09083">
        <time>2015-05-13T00:42:55Z</time>
      </trkpt>
      <trkpt lat="48.15574" lon="5.0908">
        <time>2015-05-13T00:42:58Z</time>
      </trkpt>
      <trkpt lat="48.15534" lon="5.09079">
        <time>2015-05-13T00:43:02Z</time>
      </trkpt>
      <trkpt lat="48.15506" lon="5.09073">
        <time>2015-05-13T00:43:05Z</time>
      </trkpt>
      <trkpt lat="48.15477" lon="5.09064">
        <time>2015-05-13T00:43:07Z</time>
      </trkpt>
      <trkpt lat="48.15424" lon="5.09039">
        <time>2015-05-13T00:43:13Z</time>
      </trkpt>
      <trkpt lat="48.15393" lon="5.09029">
        <time>2015-05-13T00:43:16Z</time>
      </trkpt>
      <trkpt lat="48.15369" lon="5.09026">
        <time>2015-05-13T00:43:19Z</time>
      </trkpt>
      <trkpt lat="48.15312" lon="5.09026">
        <time>2015-05-13T00:43:24Z</time>
      </trkpt>
      <trkpt lat="48.15214" lon="5.09013">
        <time>2015-05-13T00:43:34Z</time>
      </trkpt>
      <trkpt lat="48.15068" lon="5.08985">
        <time>2015-05-13T00:43:49Z</time>
      </trkpt>
      <trkpt lat="48.1497" lon="5.08959">
        <time>2015-05-13T00:43:59Z</time>
      </trkpt>
      <trkpt lat="48.14919" lon="5.08948">
        <time>2015-05-13T00:44:04Z</time>
      </trkpt>
      <trkpt lat="48.14894" lon="5.08942">
        <time>2015-05-13T00:44:06Z</time>
      </trkpt>
      <trkpt lat="48.14839" lon="5.08934">
        <time>2015-05-13T00:44:12Z</time>
      </trkpt>
      <trkpt lat="48.14673" lon="5.08906">
        <time>2015-05-13T00:44:29Z</time>
      </trkpt>
      <trkpt lat="48.14552" lon="5.08886">
        <time>2015-05-13T00:44:41Z</time>
      </trkpt>
      <trkpt lat="48.14236" lon="5.08822">
        <time>2015-05-13T00:45:12Z</time>
      </trkpt>
      <trkpt lat="48.14168" lon="5.08807">
        <time>2015-05-13T00:45:19Z</time>
      </trkpt>
      <trkpt lat="48.14141" lon="5.08803">
        <time>2015-05-13T00:45:22Z</time>
      </trkpt>
      <trkpt lat="48.14112" lon="5.08803">
        <time>2015-05-13T00:45:25Z</time>
      </trkpt>
      <trkpt lat="48.14066" lon="5.08801">
        <time>2015-05-13T00:45:29Z</time>
      </trkpt>
      <trkpt lat="48.1404" lon="5.08792">
        <time>2015-05-13T00:45:32Z</time>
      </trkpt>
      <trkpt lat="48.13949" lon="5.08759">
        <time>2015-05-13T00:45:41Z</time>
      </trkpt>
      <trkpt lat="48.1388" lon="5.0874">
        <time>2015-05-13T00:45:48Z</time>
      </trkpt>
      <trkpt lat="48.1387" lon="5.08734">
        <time>2015-05-13T00:45:50Z</time>
      </trkpt>
      <trkpt lat="48.13858" lon="5.08724">
        <time>2015-05-13T00:45:51Z</time>
      </trkpt>
      <trkpt lat="48.13835" lon="5.087">
        <time>2015-05-13T00:45:54Z</time>
      </trkpt>
      <trkpt lat="48.13811" lon="5.08674">
        <time>2015-05-13T00:45:57Z</time>
      </trkpt>
      <trkpt lat="48.13779" lon="5.08637">
        <time>2015-05-13T00:46:01Z</time>
      </trkpt>
      <trkpt lat="48.13742" lon="5.086">
        <time>2015-05-13T00:46:05Z</time>
      </trkpt>
      <trkpt lat="48.13728" lon="5.08591">
        <time>2015-05-13T00:46:07Z</time>
      </trkpt>
      <trkpt lat="48.13666" lon="5.08556">
        <time>2015-05-13T00:46:13Z</time>
      </trkpt>
      <trkpt lat="48.13629" lon="5.08532">
        <time>2015-05-13T00:46:17Z</time>
      </trkpt>
      <trkpt lat="48.13574" lon="5.0848">
        <time>2015-05-13T00:46:24Z</time>
      </trkpt>
      <trkpt lat="48.13541" lon="5.08425">
        <time>2015-05-13T00:46:29Z</time>
      </trkpt>
      <trkpt lat="48.13311" lon="5.0834">
        <time>2015-05-13T00:46:52Z</time>
      </trkpt>
      <trkpt lat="48.13244" lon="5.08307">
        <time>2015-05-13T00:46:59Z</time>
      </trkpt>
      <trkpt lat="48.13232" lon="5.08297">
        <time>2015-05-13T00:47:01Z</time>
      </trkpt>
      <trkpt lat="48.13143" lon="5.08242">
        <time>2015-05-13T00:47:10Z</time>
      </trkpt>
      <trkpt lat="48.13049" lon="5.08194">
        <time>2015-05-13T00:47:20Z</time>
      </trkpt>
      <trkpt lat="48.13026" lon="5.08179">
        <time>2015-05-13T00:47:23Z</time>
      </trkpt>
      <trkpt lat="48.12869" lon="5.08053">
        <time>2015-05-13T00:47:40Z</time>
      </trkpt>
      <trkpt lat="48.12836" lon="5.0803">
        <time>2015-05-13T00:47:44Z</time>
      </trkpt>
      <trkpt lat="48.12819" lon="5.0802">
        <time>2015-05-13T00:47:46Z</time>
      </trkpt>
      <trkpt lat="48.12751" lon="5.07985">
        <time>2015-05-13T00:47:53Z</time>
      </trkpt>
      <trkpt lat="48.12688" lon="5.07952">
        <time>2015-05-13T00:48:00Z</time>
      </trkpt>
      <trkpt lat="48.12561" lon="5.07885">
        <time>2015-05-13T00:48:13Z</time>
      </trkpt>
      <trkpt lat="48.12527" lon="5.07861">
        <time>2015-05-13T00:48:17Z</time>
      </trkpt>
      <trkpt lat="48.12499" lon="5.07844">
        <time>2015-05-13T00:48:20Z</time>
      </trkpt>
      <trkpt lat="48.12477" lon="5.07834">
        <time>2015-05-13T00:48:22Z</time>
      </trkpt>
      <trkpt lat="48.12451" lon="5.07826">
        <time>2015-05-13T00:48:25Z</time>
      </trkpt>
      <trkpt lat="48.12427" lon="5.0782">
        <time>2015-05-13T00:48:27Z</time>
      </trkpt>
      <trkpt lat="48.12411" lon="5.07815">
        <time>2015-05-13T00:48:29Z</time>
      </trkpt>
      <trkpt lat="48.12388" lon="5.07802">
        <time>2015-05-13T00:48:31Z</time>
      </trkpt>
      <trkpt lat="48.1229" lon="5.0773">
        <time>2015-05-13T00:48:42Z</time>
      </trkpt>
      <trkpt lat="48.12289" lon="5.07729">
        <time>2015-05-13T00:48:42Z</time>
      </trkpt>
      <trkpt lat="48.12289" lon="5.07729">
        <time>2015-05-13T00:48:42Z</time>
      </trkpt>
      <trkpt lat="48.12173" lon="5.07633">
        <time>2015-05-13T00:48:56Z</time>
      </trkpt>
      <trkpt lat="48.12041" lon="5.07528">
        <time>2015-05-13T00:49:11Z</time>
      </trkpt>
      <trkpt lat="48.11991" lon="5.0749">
        <time>2015-05-13T00:49:16Z</time>
      </trkpt>
      <trkpt lat="48.11967" lon="5.07473">
        <time>2015-05-13T00:49:19Z</time>
      </trkpt>
      <trkpt lat="48.11853" lon="5.0741">
        <time>2015-05-13T00:49:31Z</time>
      </trkpt>
      <trkpt lat="48.11804" lon="5.07377">
        <time>2015-05-13T00:49:36Z</time>
      </trkpt>
      <trkpt lat="48.11705" lon="5.07303">
        <time>2015-05-13T00:49:47Z</time>
      </trkpt>
      <trkpt lat="48.11595" lon="5.07223">
        <time>2015-05-13T00:49:59Z</time>
      </trkpt>
      <trkpt lat="48.11528" lon="5.07164">
        <time>2015-05-13T00:50:07Z</time>
      </trkpt>
      <trkpt lat="48.11461" lon="5.07095">
        <time>2015-05-13T00:50:15Z</time>
      </trkpt>
      <trkpt lat="48.11393" lon="5.07032">
        <time>2015-05-13T00:50:23Z</time>
      </trkpt>
      <trkpt lat="48.11359" lon="5.07002">
        <time>2015-05-13T00:50:27Z</time>
      </trkpt>
      <trkpt lat="48.1133" lon="5.0698">
        <time>2015-05-13T00:50:30Z</time>
      </trkpt>
      <trkpt lat="48.11237" lon="5.06895">
        <time>2015-05-13T00:50:41Z</time>
      </trkpt>
      <trkpt lat="48.1121" lon="5.06869">
        <time>2015-05-13T00:50:45Z</time>
      </trkpt>
      <trkpt lat="48.11061" lon="5.06726">
        <time>2015-05-13T00:51:02Z</time>
      </trkpt>
      <trkpt lat="48.10994" lon="5.06671">
        <time>2015-05-13T00:51:10Z</time>
      </trkpt>
      <trkpt lat="48.10931" lon="5.06622">
        <time>2015-05-13T00:51:17Z</time>
      </trkpt>
      <trkpt lat="48.10931" lon="5.06622">
        <time>2015-05-13T00:51:17Z</time>
      </trkpt>
      <trkpt lat="48.10925" lon="5.06617">
        <time>2015-05-13T00:51:18Z</time>
      </trkpt>
      <trkpt lat="48.10924" lon="5.06634">
        <time>2015-05-13T00:51:19Z</time>
      </trkpt>
      <trkpt lat="48.10916" lon="5.06689">
        <time>2015-05-13T00:51:22Z</time>
      </trkpt>
      <trkpt lat="48.109" lon="5.06789">
        <time>2015-05-13T00:51:29Z</time>
      </trkpt>
      <trkpt lat="48.10889" lon="5.06879">
        <time>2015-05-13T00:51:35Z</time>
      </trkpt>
      <trkpt lat="48.1088" lon="5.06934">
        <time>2015-05-13T00:51:39Z</time>
      </trkpt>
      <trkpt lat="48.1086" lon="5.07032">
        <time>2015-05-13T00:51:46Z</time>
      </trkpt>
      <trkpt lat="48.10837" lon="5.07136">
        <time>2015-05-13T00:51:53Z</time>
      </trkpt>
      <trkpt lat="48.10815" lon="5.07223">
        <time>2015-05-13T00:51:59Z</time>
      </trkpt>
      <trkpt lat="48.10794" lon="5.07302">
        <time>2015-05-13T00:52:05Z</time>
      </trkpt>
      <trkpt lat="48.10782" lon="5.0734">
        <time>2015-05-13T00:52:08Z</time>
      </trkpt>
      <trkpt lat="48.10766" lon="5.07383">
        <time>2015-05-13T00:52:11Z</time>
      </trkpt>
      <trkpt lat="48.10749" lon="5.0744">
        <time>2015-05-13T00:52:15Z</time>
      </trkpt>
      <trkpt lat="48.10732" lon="5.07506">
        <time>2015-05-13T00:52:20Z</time>
      </trkpt>
      <trkpt lat="48.10717" lon="5.07581">
        <time>2015-05-13T00:52:25Z</time>
      </trkpt>
      <trkpt lat="48.10715" lon="5.07591">
        <time>2015-05-13T00:52:26Z</time>
      </trkpt>
      <trkpt lat="48.10715" lon="5.07591">
        <time>2015-05-13T00:52:26Z</time>
      </trkpt>
      <trkpt lat="48.10717" lon="5.07581">
        <time>2015-05-13T00:52:27Z</time>
      </trkpt>
      <trkpt lat="48.10728" lon="5.07622">
        <time>2015-05-13T00:52:30Z</time>
      </trkpt>
      <trkpt lat="48.10772" lon="5.0775">
        <time>2015-05-13T00:52:39Z</time>
      </trkpt>
      <trkpt lat="48.10845" lon="5.07941">
        <time>2015-05-13T00:52:54Z</time>
      </trkpt>
      <trkpt lat="48.10919" lon="5.08129">
        <time>2015-05-13T00:53:08Z</time>
      </trkpt>
      <trkpt lat="48.10976" lon="5.08275">
        <time>2015-05-13T00:53:20Z</time>
      </trkpt>
      <trkpt lat="48.11082" lon="5.08546">
        <time>2015-05-13T00:53:41Z</time>
      </trkpt>
      <trkpt lat="48.11206" lon="5.08863">
        <time>2015-05-13T00:54:05Z</time>
      </trkpt>
      <trkpt lat="48.11247" lon="5.08974">
        <time>2015-05-13T00:54:14Z</time>
      </trkpt>
      <trkpt lat="48.11259" lon="5.09015">
        <time>2015-05-13T00:54:16Z</time>
      </trkpt>
      <trkpt lat="48.11294" lon="5.09118">
        <time>2015-05-13T00:54:24Z</time>
      </trkpt>
      <trkpt lat="48.1131" lon="5.09152">
        <time>2015-05-13T00:54:27Z</time>
      </trkpt>
      <trkpt lat="48.11322" lon="5.09186">
        <time>2015-05-13T00:54:30Z</time>
      </trkpt>
      <trkpt lat="48.11334" lon="5.09222">
        <time>2015-05-13T00:54:32Z</time>
      </trkpt>
      <trkpt lat="48.11345" lon="5.09251">
        <time>2015-05-13T00:54:34Z</time>
      </trkpt>
      <trkpt lat="48.11352" lon="5.09265">
        <time>2015-05-13T00:54:36Z</time>
      </trkpt>
      <trkpt lat="48.11361" lon="5.09281">
        <time>2015-05-13T00:54:37Z</time>
      </trkpt>
      <trkpt lat="48.11388" lon="5.09343">
        <time>2015-05-13T00:54:42Z</time>
      </trkpt>
      <trkpt lat="48.11415" lon="5.09418">
        <time>2015-05-13T00:54:48Z</time>
      </trkpt>
      <trkpt lat="48.11444" lon="5.09498">
        <time>2015-05-13T00:54:54Z</time>
      </trkpt>
      <trkpt lat="48.11464" lon="5.09547">
        <time>2015-05-13T00:54:57Z</time>
      </trkpt>
      <trkpt lat="48.11491" lon="5.09617">
        <time>2015-05-13T00:55:03Z</time>
      </trkpt>
      <trkpt lat="48.11499" lon="5.09654">
        <time>2015-05-13T00:55:05Z</time>
      </trkpt>
      <trkpt lat="48.11501" lon="5.09675">
        <time>2015-05-13T00:55:07Z</time>
      </trkpt>
      <trkpt lat="48.115" lon="5.09723">
        <time>2015-05-13T00:55:10Z</time>
      </trkpt>
      <trkpt lat="48.11496" lon="5.0979">
        <time>2015-05-13T00:55:15Z</time>
      </trkpt>
      <trkpt lat="48.11483" lon="5.09964">
        <time>2015-05-13T00:55:26Z</time>
      </trkpt>
      <trkpt lat="48.11473" lon="5.10108">
        <time>2015-05-13T00:55:36Z</time>
      </trkpt>
      <trkpt lat="48.1142" lon="5.10866">
        <time>2015-05-13T00:56:27Z</time>
      </trkpt>
      <trkpt lat="48.11408" lon="5.11034">
        <time>2015-05-13T00:56:38Z</time>
      </trkpt>
      <trkpt lat="48.114" lon="5.11088">
        <time>2015-05-13T00:56:41Z</time>
      </trkpt>
      <trkpt lat="48.114" lon="5.11088">
        <time>2015-05-13T00:56:41Z</time>
      </trkpt>
      <trkpt lat="48.11393" lon="5.11119">
        <time>2015-05-13T00:56:44Z</time>
      </trkpt>
      <trkpt lat="48.11383" lon="5.11144">
        <time>2015-05-13T00:56:46Z</time>
      </trkpt>
      <trkpt lat="48.1126" lon="5.11373">
        <time>2015-05-13T00:57:05Z</time>
      </trkpt>
      <trkpt lat="48.11225" lon="5.11444">
        <time>2015-05-13T00:57:11Z</time>
      </trkpt>
      <trkpt lat="48.11197" lon="5.11493">
        <time>2015-05-13T00:57:15Z</time>
      </trkpt>
      <trkpt lat="48.11176" lon="5.11537">
        <time>2015-05-13T00:57:19Z</time>
      </trkpt>
      <trkpt lat="48.1117" lon="5.11558">
        <time>2015-05-13T00:57:20Z</time>
      </trkpt>
      <trkpt lat="48.11168" lon="5.11584">
        <time>2015-05-13T00:57:22Z</time>
      </trkpt>
      <trkpt lat="48.11168" lon="5.1164">
        <time>2015-05-13T00:57:26Z</time>
      </trkpt>
      <trkpt lat="48.11164" lon="5.11661">
        <time>2015-05-13T00:57:27Z</time>
      </trkpt>
      <trkpt lat="48.11158" lon="5.11676">
        <time>2015-05-13T00:57:29Z</time>
      </trkpt>
      <trkpt lat="48.11152" lon="5.11685">
        <time>2015-05-13T00:57:29Z</time>
      </trkpt>
      <trkpt lat="48.11143" lon="5.11691">
        <time>2015-05-13T00:57:30Z</time>
      </trkpt>
      <trkpt lat="48.11125" lon="5.11693">
        <time>2015-05-13T00:57:32Z</time>
      </trkpt>
      <trkpt lat="48.11116" lon="5.11693">
        <time>2015-05-13T00:57:33Z</time>
      </trkpt>
      <trkpt lat="48.11103" lon="5.11696">
        <time>2015-05-13T00:57:34Z</time>
      </trkpt>
      <trkpt lat="48.11093" lon="5.11703">
        <time>2015-05-13T00:57:35Z</time>
      </trkpt>
      <trkpt lat="48.11083" lon="5.11717">
        <time>2015-05-13T00:57:37Z</time>
      </trkpt>
      <trkpt lat="48.11073" lon="5.1173">
        <time>2015-05-13T00:57:38Z</time>
      </trkpt>
      <trkpt lat="48.11067" lon="5.11744">
        <time>2015-05-13T00:57:39Z</time>
      </trkpt>
      <trkpt lat="48.11063" lon="5.11752">
        <time>2015-05-13T00:57:40Z</time>
      </trkpt>
      <trkpt lat="48.11043" lon="5.11763">
        <time>2015-05-13T00:57:42Z</time>
      </trkpt>
      <trkpt lat="48.11033" lon="5.11769">
        <time>2015-05-13T00:57:43Z</time>
      </trkpt>
      <trkpt lat="48.11035" lon="5.1178">
        <time>2015-05-13T00:57:44Z</time>
      </trkpt>
      <trkpt lat="48.1104" lon="5.11794">
        <time>2015-05-13T00:57:45Z</time>
      </trkpt>
      <trkpt lat="48.11056" lon="5.11821">
        <time>2015-05-13T00:57:47Z</time>
      </trkpt>
      <trkpt lat="48.11068" lon="5.11836">
        <time>2015-05-13T00:57:49Z</time>
      </trkpt>
      <trkpt lat="48.11086" lon="5.1185">
        <time>2015-05-13T00:57:51Z</time>
      </trkpt>
      <trkpt lat="48.11105" lon="5.1186">
        <time>2015-05-13T00:57:53Z</time>
      </trkpt>
      <trkpt lat="48.11115" lon="5.11866">
        <time>2015-05-13T00:57:54Z</time>
      </trkpt>
      <trkpt lat="48.11099" lon="5.12025">
        <time>2015-05-13T00:58:05Z</time>
      </trkpt>
      <trkpt lat="48.11082" lon="5.12213">
        <time>2015-05-13T00:58:17Z</time>
      </trkpt>
      <trkpt lat="48.11063" lon="5.12212">
        <time>2015-05-13T00:58:19Z</time>
      </trkpt>
      <trkpt lat="48.11051" lon="5.12224">
        <time>2015-05-13T00:58:21Z</time>
      </trkpt>
      <trkpt lat="48.11045" lon="5.12234">
        <time>2015-05-13T00:58:22Z</time>
      </trkpt>
      <trkpt lat="48.11037" lon="5.12254">
        <time>2015-05-13T00:58:23Z</time>
      </trkpt>
      <trkpt lat="48.11016" lon="5.12297">
        <time>2015-05-13T00:58:27Z</time>
      </trkpt>
      <trkpt lat="48.11009" lon="5.12304">
        <time>2015-05-13T00:58:28Z</time>
      </trkpt>
      <trkpt lat="48.10979" lon="5.12325">
        <time>2015-05-13T00:58:31Z</time>
      </trkpt>
      <trkpt lat="48.10973" lon="5.12332">
        <time>2015-05-13T00:58:32Z</time>
      </trkpt>
      <trkpt lat="48.1097" lon="5.12341">
        <time>2015-05-13T00:58:32Z</time>
      </trkpt>
      <trkpt lat="48.10962" lon="5.1237">
        <time>2015-05-13T00:58:34Z</time>
      </trkpt>
      <trkpt lat="48.10955" lon="5.12404">
        <time>2015-05-13T00:58:37Z</time>
      </trkpt>
      <trkpt lat="48.10953" lon="5.12417">
        <time>2015-05-13T00:58:38Z</time>
      </trkpt>
      <trkpt lat="48.10954" lon="5.12439">
        <time>2015-05-13T00:58:39Z</time>
      </trkpt>
      <trkpt lat="48.10958" lon="5.12453">
        <time>2015-05-13T00:58:40Z</time>
      </trkpt>
      <trkpt lat="48.10951" lon="5.12495">
        <time>2015-05-13T00:58:43Z</time>
      </trkpt>
      <trkpt lat="48.10943" lon="5.12541">
        <time>2015-05-13T00:58:46Z</time>
      </trkpt>
      <trkpt lat="48.10935" lon="5.12598">
        <time>2015-05-13T00:58:50Z</time>
      </trkpt>
      <trkpt lat="48.10937" lon="5.12629">
        <time>2015-05-13T00:58:52Z</time>
      </trkpt>
      <trkpt lat="48.10952" lon="5.12699">
        <time>2015-05-13T00:58:57Z</time>
      </trkpt>
      <trkpt lat="48.11078" lon="5.13228">
        <time>2015-05-13T00:59:34Z</time>
      </trkpt>
      <trkpt lat="48.11086" lon="5.1329">
        <time>2015-05-13T00:59:39Z</time>
      </trkpt>
      <trkpt lat="48.111" lon="5.13449">
        <time>2015-05-13T00:59:49Z</time>
      </trkpt>
      <trkpt lat="48.11102" lon="5.13475">
        <time>2015-05-13T00:59:51Z</time>
      </trkpt>
      <trkpt lat="48.11111" lon="5.13531">
        <time>2015-05-13T00:59:55Z</time>
      </trkpt>
      <trkpt lat="48.11114" lon="5.13536">
        <time>2015-05-13T00:59:55Z</time>
      </trkpt>
      <trkpt lat="48.11114" lon="5.13538">
        <time>2015-05-13T00:59:55Z</time>
      </trkpt>
      <trkpt lat="48.11113" lon="5.13542">
        <time>2015-05-13T00:59:56Z</time>
      </trkpt>
      <trkpt lat="48.11115" lon="5.13547">
        <time>2015-05-13T00:59:56Z</time>
      </trkpt>
    </trkseg>
  </trk>
</gpx>

